<?xml version="1.0" encoding="UTF-8" standalone="no" ?>
<gpx xmlns="http://www.topografix.com/GPX/1/1" xmlns:xsi="http://www.w3.org/2001/XMLSchema-instance" xsi:schemaLocation="http://www.topografix.com/GPX/1/1 http://www.topografix.com/GPX/1/1/gpx.xsd" version="1.1" creator="VisuGPX - https://www.visugpx.com">
  <metadata>
    <name>La baume de Roustan</name>
  </metadata>
  <trk>
    <name><![CDATA[16/03/2019 10:58:31  la baume de Roustan]]></name>
    <extensions>
      <line xmlns="http://www.topografix.com/GPX/gpx_style/0/2">
        <color>0000FF</color>
        <width>4</width>
      </line>
    </extensions>
    <trkseg>
      <trkpt lat="43.96266" lon="5.33679">
        <ele>441.20001220703</ele>
        <time>2019-03-16T09:58:31Z</time>
      </trkpt>
      <trkpt lat="43.96266" lon="5.33678">
        <ele>441.20001220703</ele>
        <time>2019-03-16T09:58:32Z</time>
      </trkpt>
      <trkpt lat="43.96268" lon="5.33678">
        <ele>441.39999389648</ele>
        <time>2019-03-16T09:58:58Z</time>
      </trkpt>
      <trkpt lat="43.96266" lon="5.33676">
        <ele>441.20001220703</ele>
        <time>2019-03-16T09:59:17Z</time>
      </trkpt>
      <trkpt lat="43.96262" lon="5.33675">
        <ele>441.39999389648</ele>
        <time>2019-03-16T09:59:49Z</time>
      </trkpt>
      <trkpt lat="43.96252" lon="5.33671">
        <ele>440</ele>
        <time>2019-03-16T10:00:07Z</time>
      </trkpt>
      <trkpt lat="43.9625" lon="5.3367">
        <ele>439.20001220703</ele>
        <time>2019-03-16T10:00:39Z</time>
      </trkpt>
      <trkpt lat="43.96249" lon="5.33667">
        <ele>439.20001220703</ele>
        <time>2019-03-16T10:00:53Z</time>
      </trkpt>
      <trkpt lat="43.96251" lon="5.33664">
        <ele>439</ele>
        <time>2019-03-16T10:00:56Z</time>
      </trkpt>
      <trkpt lat="43.96271" lon="5.33655">
        <ele>438</ele>
        <time>2019-03-16T10:01:15Z</time>
      </trkpt>
      <trkpt lat="43.96288" lon="5.33656">
        <ele>437.39999389648</ele>
        <time>2019-03-16T10:01:25Z</time>
      </trkpt>
      <trkpt lat="43.96309" lon="5.33653">
        <ele>436.20001220703</ele>
        <time>2019-03-16T10:01:42Z</time>
      </trkpt>
      <trkpt lat="43.96322" lon="5.33636">
        <ele>435.60000610352</ele>
        <time>2019-03-16T10:01:57Z</time>
      </trkpt>
      <trkpt lat="43.96324" lon="5.33632">
        <ele>435.39999389648</ele>
        <time>2019-03-16T10:02:00Z</time>
      </trkpt>
      <trkpt lat="43.96328" lon="5.33622">
        <ele>435.20001220703</ele>
        <time>2019-03-16T10:02:09Z</time>
      </trkpt>
      <trkpt lat="43.96342" lon="5.33606">
        <ele>435</ele>
        <time>2019-03-16T10:02:24Z</time>
      </trkpt>
      <trkpt lat="43.9636" lon="5.33596">
        <ele>434.60000610352</ele>
        <time>2019-03-16T10:02:42Z</time>
      </trkpt>
      <trkpt lat="43.96379" lon="5.33592">
        <ele>433.79998779297</ele>
        <time>2019-03-16T10:02:59Z</time>
      </trkpt>
      <trkpt lat="43.96396" lon="5.3358">
        <ele>432.60000610352</ele>
        <time>2019-03-16T10:03:15Z</time>
      </trkpt>
      <trkpt lat="43.96405" lon="5.33555">
        <ele>432</ele>
        <time>2019-03-16T10:03:31Z</time>
      </trkpt>
      <trkpt lat="43.96404" lon="5.33544">
        <ele>432</ele>
        <time>2019-03-16T10:03:38Z</time>
      </trkpt>
      <trkpt lat="43.96398" lon="5.33531">
        <ele>432</ele>
        <time>2019-03-16T10:03:52Z</time>
      </trkpt>
      <trkpt lat="43.96398" lon="5.33527">
        <ele>432</ele>
        <time>2019-03-16T10:03:55Z</time>
      </trkpt>
      <trkpt lat="43.96399" lon="5.3352">
        <ele>432</ele>
        <time>2019-03-16T10:03:59Z</time>
      </trkpt>
      <trkpt lat="43.96398" lon="5.33504">
        <ele>432</ele>
        <time>2019-03-16T10:04:14Z</time>
      </trkpt>
      <trkpt lat="43.96397" lon="5.33496">
        <ele>431.79998779297</ele>
        <time>2019-03-16T10:04:20Z</time>
      </trkpt>
      <trkpt lat="43.96401" lon="5.33469">
        <ele>431.79998779297</ele>
        <time>2019-03-16T10:04:37Z</time>
      </trkpt>
      <trkpt lat="43.96412" lon="5.33449">
        <ele>432</ele>
        <time>2019-03-16T10:04:53Z</time>
      </trkpt>
      <trkpt lat="43.96425" lon="5.33436">
        <ele>432</ele>
        <time>2019-03-16T10:05:09Z</time>
      </trkpt>
      <trkpt lat="43.96435" lon="5.33436">
        <ele>433</ele>
        <time>2019-03-16T10:05:28Z</time>
      </trkpt>
      <trkpt lat="43.9645" lon="5.33439">
        <ele>436</ele>
        <time>2019-03-16T10:05:49Z</time>
      </trkpt>
      <trkpt lat="43.96465" lon="5.33443">
        <ele>439.20001220703</ele>
        <time>2019-03-16T10:06:06Z</time>
      </trkpt>
      <trkpt lat="43.96476" lon="5.33452">
        <ele>441.39999389648</ele>
        <time>2019-03-16T10:06:23Z</time>
      </trkpt>
      <trkpt lat="43.96489" lon="5.33462">
        <ele>443.39999389648</ele>
        <time>2019-03-16T10:06:42Z</time>
      </trkpt>
      <trkpt lat="43.96505" lon="5.33471">
        <ele>446.20001220703</ele>
        <time>2019-03-16T10:07:05Z</time>
      </trkpt>
      <trkpt lat="43.96519" lon="5.33477">
        <ele>448.20001220703</ele>
        <time>2019-03-16T10:07:23Z</time>
      </trkpt>
      <trkpt lat="43.96535" lon="5.33482">
        <ele>450</ele>
        <time>2019-03-16T10:07:46Z</time>
      </trkpt>
      <trkpt lat="43.96551" lon="5.33486">
        <ele>452</ele>
        <time>2019-03-16T10:08:04Z</time>
      </trkpt>
      <trkpt lat="43.96562" lon="5.3349">
        <ele>454</ele>
        <time>2019-03-16T10:08:20Z</time>
      </trkpt>
      <trkpt lat="43.96575" lon="5.33494">
        <ele>456.39999389648</ele>
        <time>2019-03-16T10:08:40Z</time>
      </trkpt>
      <trkpt lat="43.96588" lon="5.335">
        <ele>458.79998779297</ele>
        <time>2019-03-16T10:08:58Z</time>
      </trkpt>
      <trkpt lat="43.96602" lon="5.33509">
        <ele>461.79998779297</ele>
        <time>2019-03-16T10:09:18Z</time>
      </trkpt>
      <trkpt lat="43.96611" lon="5.33515">
        <ele>464.20001220703</ele>
        <time>2019-03-16T10:09:36Z</time>
      </trkpt>
      <trkpt lat="43.96621" lon="5.3352">
        <ele>466</ele>
        <time>2019-03-16T10:09:54Z</time>
      </trkpt>
      <trkpt lat="43.96628" lon="5.33532">
        <ele>467.60000610352</ele>
        <time>2019-03-16T10:10:06Z</time>
      </trkpt>
      <trkpt lat="43.96641" lon="5.33544">
        <ele>469.60000610352</ele>
        <time>2019-03-16T10:10:24Z</time>
      </trkpt>
      <trkpt lat="43.9665" lon="5.33549">
        <ele>471.39999389648</ele>
        <time>2019-03-16T10:10:39Z</time>
      </trkpt>
      <trkpt lat="43.96659" lon="5.33556">
        <ele>473.79998779297</ele>
        <time>2019-03-16T10:10:53Z</time>
      </trkpt>
      <trkpt lat="43.96659" lon="5.33559">
        <ele>474.20001220703</ele>
        <time>2019-03-16T10:11:40Z</time>
      </trkpt>
      <trkpt lat="43.96659" lon="5.33561">
        <ele>475.20001220703</ele>
        <time>2019-03-16T10:13:22Z</time>
      </trkpt>
      <trkpt lat="43.96668" lon="5.33572">
        <ele>476</ele>
        <time>2019-03-16T10:13:40Z</time>
      </trkpt>
      <trkpt lat="43.96673" lon="5.33578">
        <ele>476.39999389648</ele>
        <time>2019-03-16T10:13:48Z</time>
      </trkpt>
      <trkpt lat="43.96683" lon="5.33592">
        <ele>477.60000610352</ele>
        <time>2019-03-16T10:14:04Z</time>
      </trkpt>
      <trkpt lat="43.96696" lon="5.33604">
        <ele>479</ele>
        <time>2019-03-16T10:14:21Z</time>
      </trkpt>
      <trkpt lat="43.96712" lon="5.33612">
        <ele>481</ele>
        <time>2019-03-16T10:14:39Z</time>
      </trkpt>
      <trkpt lat="43.96727" lon="5.33619">
        <ele>483</ele>
        <time>2019-03-16T10:14:56Z</time>
      </trkpt>
      <trkpt lat="43.96734" lon="5.33607">
        <ele>485</ele>
        <time>2019-03-16T10:15:14Z</time>
      </trkpt>
      <trkpt lat="43.96737" lon="5.33594">
        <ele>486.79998779297</ele>
        <time>2019-03-16T10:15:32Z</time>
      </trkpt>
      <trkpt lat="43.96749" lon="5.33592">
        <ele>489</ele>
        <time>2019-03-16T10:15:50Z</time>
      </trkpt>
      <trkpt lat="43.96763" lon="5.33594">
        <ele>491</ele>
        <time>2019-03-16T10:16:06Z</time>
      </trkpt>
      <trkpt lat="43.96779" lon="5.33589">
        <ele>494.20001220703</ele>
        <time>2019-03-16T10:16:27Z</time>
      </trkpt>
      <trkpt lat="43.96791" lon="5.3358">
        <ele>497</ele>
        <time>2019-03-16T10:16:46Z</time>
      </trkpt>
      <trkpt lat="43.96805" lon="5.33579">
        <ele>499.60000610352</ele>
        <time>2019-03-16T10:17:03Z</time>
      </trkpt>
      <trkpt lat="43.96821" lon="5.33578">
        <ele>501.79998779297</ele>
        <time>2019-03-16T10:17:22Z</time>
      </trkpt>
      <trkpt lat="43.96832" lon="5.33569">
        <ele>503.60000610352</ele>
        <time>2019-03-16T10:17:39Z</time>
      </trkpt>
      <trkpt lat="43.96845" lon="5.3356">
        <ele>506.79998779297</ele>
        <time>2019-03-16T10:18:00Z</time>
      </trkpt>
      <trkpt lat="43.96852" lon="5.33557">
        <ele>508.79998779297</ele>
        <time>2019-03-16T10:18:16Z</time>
      </trkpt>
      <trkpt lat="43.96855" lon="5.3355">
        <ele>509.39999389648</ele>
        <time>2019-03-16T10:18:29Z</time>
      </trkpt>
      <trkpt lat="43.96856" lon="5.33547">
        <ele>509.79998779297</ele>
        <time>2019-03-16T10:18:53Z</time>
      </trkpt>
      <trkpt lat="43.96862" lon="5.33529">
        <ele>511</ele>
        <time>2019-03-16T10:19:10Z</time>
      </trkpt>
      <trkpt lat="43.96864" lon="5.33513">
        <ele>514</ele>
        <time>2019-03-16T10:19:27Z</time>
      </trkpt>
      <trkpt lat="43.96856" lon="5.33495">
        <ele>517.40002441406</ele>
        <time>2019-03-16T10:19:46Z</time>
      </trkpt>
      <trkpt lat="43.9685" lon="5.33479">
        <ele>519.79998779297</ele>
        <time>2019-03-16T10:20:02Z</time>
      </trkpt>
      <trkpt lat="43.96851" lon="5.3346">
        <ele>522</ele>
        <time>2019-03-16T10:20:18Z</time>
      </trkpt>
      <trkpt lat="43.96861" lon="5.33452">
        <ele>524.40002441406</ele>
        <time>2019-03-16T10:20:35Z</time>
      </trkpt>
      <trkpt lat="43.9687" lon="5.33444">
        <ele>526.59997558594</ele>
        <time>2019-03-16T10:20:49Z</time>
      </trkpt>
      <trkpt lat="43.96877" lon="5.33433">
        <ele>529.40002441406</ele>
        <time>2019-03-16T10:21:03Z</time>
      </trkpt>
      <trkpt lat="43.96884" lon="5.33422">
        <ele>532.20001220703</ele>
        <time>2019-03-16T10:21:19Z</time>
      </trkpt>
      <trkpt lat="43.96896" lon="5.33412">
        <ele>535.20001220703</ele>
        <time>2019-03-16T10:21:39Z</time>
      </trkpt>
      <trkpt lat="43.96909" lon="5.33416">
        <ele>538.20001220703</ele>
        <time>2019-03-16T10:21:59Z</time>
      </trkpt>
      <trkpt lat="43.96916" lon="5.33412">
        <ele>540.79998779297</ele>
        <time>2019-03-16T10:22:18Z</time>
      </trkpt>
      <trkpt lat="43.96925" lon="5.33394">
        <ele>542.20001220703</ele>
        <time>2019-03-16T10:22:39Z</time>
      </trkpt>
      <trkpt lat="43.9693" lon="5.33376">
        <ele>545.20001220703</ele>
        <time>2019-03-16T10:22:56Z</time>
      </trkpt>
      <trkpt lat="43.96933" lon="5.33355">
        <ele>548.40002441406</ele>
        <time>2019-03-16T10:23:16Z</time>
      </trkpt>
      <trkpt lat="43.96947" lon="5.33358">
        <ele>551.40002441406</ele>
        <time>2019-03-16T10:23:35Z</time>
      </trkpt>
      <trkpt lat="43.96962" lon="5.33363">
        <ele>554.59997558594</ele>
        <time>2019-03-16T10:23:55Z</time>
      </trkpt>
      <trkpt lat="43.96978" lon="5.33355">
        <ele>557.40002441406</ele>
        <time>2019-03-16T10:24:17Z</time>
      </trkpt>
      <trkpt lat="43.96988" lon="5.33344">
        <ele>560</ele>
        <time>2019-03-16T10:24:33Z</time>
      </trkpt>
      <trkpt lat="43.96996" lon="5.33342">
        <ele>561.20001220703</ele>
        <time>2019-03-16T10:24:42Z</time>
      </trkpt>
      <trkpt lat="43.97007" lon="5.33349">
        <ele>563.20001220703</ele>
        <time>2019-03-16T10:24:56Z</time>
      </trkpt>
      <trkpt lat="43.97008" lon="5.33349">
        <ele>563.20001220703</ele>
        <time>2019-03-16T10:24:57Z</time>
      </trkpt>
      <trkpt lat="43.97023" lon="5.33361">
        <ele>565.59997558594</ele>
        <time>2019-03-16T10:25:14Z</time>
      </trkpt>
      <trkpt lat="43.97034" lon="5.33371">
        <ele>566.79998779297</ele>
        <time>2019-03-16T10:25:28Z</time>
      </trkpt>
      <trkpt lat="43.97046" lon="5.33383">
        <ele>568.59997558594</ele>
        <time>2019-03-16T10:25:44Z</time>
      </trkpt>
      <trkpt lat="43.9706" lon="5.33397">
        <ele>569.59997558594</ele>
        <time>2019-03-16T10:26:02Z</time>
      </trkpt>
      <trkpt lat="43.97068" lon="5.33407">
        <ele>570.79998779297</ele>
        <time>2019-03-16T10:26:18Z</time>
      </trkpt>
      <trkpt lat="43.97069" lon="5.33408">
        <ele>571</ele>
        <time>2019-03-16T10:26:25Z</time>
      </trkpt>
      <trkpt lat="43.97072" lon="5.33412">
        <ele>571</ele>
        <time>2019-03-16T10:26:29Z</time>
      </trkpt>
      <trkpt lat="43.97078" lon="5.33421">
        <ele>571</ele>
        <time>2019-03-16T10:26:36Z</time>
      </trkpt>
      <trkpt lat="43.97089" lon="5.33437">
        <ele>571.79998779297</ele>
        <time>2019-03-16T10:26:53Z</time>
      </trkpt>
      <trkpt lat="43.97103" lon="5.33453">
        <ele>572.59997558594</ele>
        <time>2019-03-16T10:27:11Z</time>
      </trkpt>
      <trkpt lat="43.97114" lon="5.33465">
        <ele>573.20001220703</ele>
        <time>2019-03-16T10:27:26Z</time>
      </trkpt>
      <trkpt lat="43.97128" lon="5.33475">
        <ele>573.20001220703</ele>
        <time>2019-03-16T10:27:40Z</time>
      </trkpt>
      <trkpt lat="43.97145" lon="5.33483">
        <ele>574.79998779297</ele>
        <time>2019-03-16T10:28:00Z</time>
      </trkpt>
      <trkpt lat="43.97146" lon="5.33484">
        <ele>574.79998779297</ele>
        <time>2019-03-16T10:28:01Z</time>
      </trkpt>
      <trkpt lat="43.97149" lon="5.33485">
        <ele>575.20001220703</ele>
        <time>2019-03-16T10:28:03Z</time>
      </trkpt>
      <trkpt lat="43.97166" lon="5.33497">
        <ele>576</ele>
        <time>2019-03-16T10:28:19Z</time>
      </trkpt>
      <trkpt lat="43.97177" lon="5.33506">
        <ele>576</ele>
        <time>2019-03-16T10:28:30Z</time>
      </trkpt>
      <trkpt lat="43.97179" lon="5.33516">
        <ele>575.79998779297</ele>
        <time>2019-03-16T10:28:38Z</time>
      </trkpt>
      <trkpt lat="43.97179" lon="5.33522">
        <ele>576</ele>
        <time>2019-03-16T10:28:42Z</time>
      </trkpt>
      <trkpt lat="43.97176" lon="5.33536">
        <ele>578.40002441406</ele>
        <time>2019-03-16T10:28:59Z</time>
      </trkpt>
      <trkpt lat="43.97174" lon="5.33541">
        <ele>578.59997558594</ele>
        <time>2019-03-16T10:29:03Z</time>
      </trkpt>
      <trkpt lat="43.97163" lon="5.33569">
        <ele>578.59997558594</ele>
        <time>2019-03-16T10:29:23Z</time>
      </trkpt>
      <trkpt lat="43.97163" lon="5.3357">
        <ele>578.59997558594</ele>
        <time>2019-03-16T10:29:24Z</time>
      </trkpt>
      <trkpt lat="43.9716" lon="5.33579">
        <ele>578.59997558594</ele>
        <time>2019-03-16T10:29:30Z</time>
      </trkpt>
      <trkpt lat="43.97154" lon="5.33606">
        <ele>577.20001220703</ele>
        <time>2019-03-16T10:29:47Z</time>
      </trkpt>
      <trkpt lat="43.97152" lon="5.33626">
        <ele>575.59997558594</ele>
        <time>2019-03-16T10:30:00Z</time>
      </trkpt>
      <trkpt lat="43.97156" lon="5.33656">
        <ele>574.40002441406</ele>
        <time>2019-03-16T10:30:19Z</time>
      </trkpt>
      <trkpt lat="43.97155" lon="5.33659">
        <ele>574.20001220703</ele>
        <time>2019-03-16T10:30:21Z</time>
      </trkpt>
      <trkpt lat="43.97157" lon="5.33681">
        <ele>573.20001220703</ele>
        <time>2019-03-16T10:30:36Z</time>
      </trkpt>
      <trkpt lat="43.97158" lon="5.33682">
        <ele>573.20001220703</ele>
        <time>2019-03-16T10:30:37Z</time>
      </trkpt>
      <trkpt lat="43.97159" lon="5.33687">
        <ele>572.79998779297</ele>
        <time>2019-03-16T10:30:40Z</time>
      </trkpt>
      <trkpt lat="43.97162" lon="5.33694">
        <ele>572.20001220703</ele>
        <time>2019-03-16T10:30:45Z</time>
      </trkpt>
      <trkpt lat="43.97175" lon="5.33708">
        <ele>570.79998779297</ele>
        <time>2019-03-16T10:31:01Z</time>
      </trkpt>
      <trkpt lat="43.97189" lon="5.33721">
        <ele>570</ele>
        <time>2019-03-16T10:31:17Z</time>
      </trkpt>
      <trkpt lat="43.97206" lon="5.33731">
        <ele>568.40002441406</ele>
        <time>2019-03-16T10:31:36Z</time>
      </trkpt>
      <trkpt lat="43.9721" lon="5.33735">
        <ele>568</ele>
        <time>2019-03-16T10:31:40Z</time>
      </trkpt>
      <trkpt lat="43.97212" lon="5.33739">
        <ele>567.79998779297</ele>
        <time>2019-03-16T10:31:42Z</time>
      </trkpt>
      <trkpt lat="43.9721" lon="5.33759">
        <ele>566.79998779297</ele>
        <time>2019-03-16T10:32:00Z</time>
      </trkpt>
      <trkpt lat="43.97207" lon="5.33787">
        <ele>569.20001220703</ele>
        <time>2019-03-16T10:32:24Z</time>
      </trkpt>
      <trkpt lat="43.97208" lon="5.33794">
        <ele>570.40002441406</ele>
        <time>2019-03-16T10:32:37Z</time>
      </trkpt>
      <trkpt lat="43.9721" lon="5.33809">
        <ele>571.79998779297</ele>
        <time>2019-03-16T10:32:54Z</time>
      </trkpt>
      <trkpt lat="43.97214" lon="5.33815">
        <ele>572.79998779297</ele>
        <time>2019-03-16T10:33:24Z</time>
      </trkpt>
      <trkpt lat="43.97224" lon="5.33824">
        <ele>574.79998779297</ele>
        <time>2019-03-16T10:33:42Z</time>
      </trkpt>
      <trkpt lat="43.97235" lon="5.33835">
        <ele>576.40002441406</ele>
        <time>2019-03-16T10:33:56Z</time>
      </trkpt>
      <trkpt lat="43.97238" lon="5.33838">
        <ele>576.59997558594</ele>
        <time>2019-03-16T10:34:00Z</time>
      </trkpt>
      <trkpt lat="43.97242" lon="5.33846">
        <ele>577.59997558594</ele>
        <time>2019-03-16T10:34:23Z</time>
      </trkpt>
      <trkpt lat="43.97251" lon="5.33851">
        <ele>578.20001220703</ele>
        <time>2019-03-16T10:34:46Z</time>
      </trkpt>
      <trkpt lat="43.97262" lon="5.33874">
        <ele>579.40002441406</ele>
        <time>2019-03-16T10:35:10Z</time>
      </trkpt>
      <trkpt lat="43.97263" lon="5.33883">
        <ele>579.59997558594</ele>
        <time>2019-03-16T10:35:16Z</time>
      </trkpt>
      <trkpt lat="43.97262" lon="5.33893">
        <ele>580</ele>
        <time>2019-03-16T10:35:22Z</time>
      </trkpt>
      <trkpt lat="43.97267" lon="5.33911">
        <ele>580.79998779297</ele>
        <time>2019-03-16T10:35:36Z</time>
      </trkpt>
      <trkpt lat="43.9727" lon="5.33933">
        <ele>581.59997558594</ele>
        <time>2019-03-16T10:35:53Z</time>
      </trkpt>
      <trkpt lat="43.97274" lon="5.33956">
        <ele>581.59997558594</ele>
        <time>2019-03-16T10:36:11Z</time>
      </trkpt>
      <trkpt lat="43.97286" lon="5.3397">
        <ele>580.79998779297</ele>
        <time>2019-03-16T10:36:28Z</time>
      </trkpt>
      <trkpt lat="43.97303" lon="5.33984">
        <ele>581.20001220703</ele>
        <time>2019-03-16T10:36:48Z</time>
      </trkpt>
      <trkpt lat="43.97308" lon="5.33999">
        <ele>581.20001220703</ele>
        <time>2019-03-16T10:37:03Z</time>
      </trkpt>
      <trkpt lat="43.9731" lon="5.34019">
        <ele>584.20001220703</ele>
        <time>2019-03-16T10:37:21Z</time>
      </trkpt>
      <trkpt lat="43.9731" lon="5.34023">
        <ele>584.79998779297</ele>
        <time>2019-03-16T10:37:24Z</time>
      </trkpt>
      <trkpt lat="43.97312" lon="5.3404">
        <ele>586.79998779297</ele>
        <time>2019-03-16T10:37:39Z</time>
      </trkpt>
      <trkpt lat="43.97319" lon="5.34061">
        <ele>589.59997558594</ele>
        <time>2019-03-16T10:38:00Z</time>
      </trkpt>
      <trkpt lat="43.97323" lon="5.34075">
        <ele>591</ele>
        <time>2019-03-16T10:38:15Z</time>
      </trkpt>
      <trkpt lat="43.97327" lon="5.34095">
        <ele>591.79998779297</ele>
        <time>2019-03-16T10:38:34Z</time>
      </trkpt>
      <trkpt lat="43.97331" lon="5.34107">
        <ele>592</ele>
        <time>2019-03-16T10:38:52Z</time>
      </trkpt>
      <trkpt lat="43.97331" lon="5.34108">
        <ele>592</ele>
        <time>2019-03-16T10:38:53Z</time>
      </trkpt>
      <trkpt lat="43.97341" lon="5.34122">
        <ele>591.79998779297</ele>
        <time>2019-03-16T10:39:08Z</time>
      </trkpt>
      <trkpt lat="43.97345" lon="5.34129">
        <ele>591.59997558594</ele>
        <time>2019-03-16T10:39:25Z</time>
      </trkpt>
      <trkpt lat="43.97346" lon="5.34132">
        <ele>590.59997558594</ele>
        <time>2019-03-16T10:39:50Z</time>
      </trkpt>
      <trkpt lat="43.9735" lon="5.34127">
        <ele>591</ele>
        <time>2019-03-16T10:40:04Z</time>
      </trkpt>
      <trkpt lat="43.97362" lon="5.34138">
        <ele>588.40002441406</ele>
        <time>2019-03-16T10:40:28Z</time>
      </trkpt>
      <trkpt lat="43.9737" lon="5.3415">
        <ele>585.20001220703</ele>
        <time>2019-03-16T10:40:46Z</time>
      </trkpt>
      <trkpt lat="43.97375" lon="5.34162">
        <ele>582.20001220703</ele>
        <time>2019-03-16T10:41:03Z</time>
      </trkpt>
      <trkpt lat="43.97379" lon="5.34175">
        <ele>579</ele>
        <time>2019-03-16T10:41:20Z</time>
      </trkpt>
      <trkpt lat="43.97387" lon="5.34194">
        <ele>579</ele>
        <time>2019-03-16T10:41:42Z</time>
      </trkpt>
      <trkpt lat="43.97389" lon="5.34202">
        <ele>581.40002441406</ele>
        <time>2019-03-16T10:42:02Z</time>
      </trkpt>
      <trkpt lat="43.97389" lon="5.34204">
        <ele>582</ele>
        <time>2019-03-16T10:42:32Z</time>
      </trkpt>
      <trkpt lat="43.9739" lon="5.34206">
        <ele>582.20001220703</ele>
        <time>2019-03-16T10:43:23Z</time>
      </trkpt>
      <trkpt lat="43.97398" lon="5.34215">
        <ele>583</ele>
        <time>2019-03-16T10:43:39Z</time>
      </trkpt>
      <trkpt lat="43.97408" lon="5.34219">
        <ele>585.59997558594</ele>
        <time>2019-03-16T10:43:58Z</time>
      </trkpt>
      <trkpt lat="43.97417" lon="5.3422">
        <ele>588.59997558594</ele>
        <time>2019-03-16T10:44:15Z</time>
      </trkpt>
      <trkpt lat="43.97427" lon="5.34226">
        <ele>591.59997558594</ele>
        <time>2019-03-16T10:44:30Z</time>
      </trkpt>
      <trkpt lat="43.97438" lon="5.34232">
        <ele>594</ele>
        <time>2019-03-16T10:44:46Z</time>
      </trkpt>
      <trkpt lat="43.97451" lon="5.34242">
        <ele>595.59997558594</ele>
        <time>2019-03-16T10:45:04Z</time>
      </trkpt>
      <trkpt lat="43.97452" lon="5.34242">
        <ele>595.59997558594</ele>
        <time>2019-03-16T10:45:05Z</time>
      </trkpt>
      <trkpt lat="43.97466" lon="5.34248">
        <ele>597</ele>
        <time>2019-03-16T10:45:22Z</time>
      </trkpt>
      <trkpt lat="43.97483" lon="5.34255">
        <ele>599.79998779297</ele>
        <time>2019-03-16T10:45:43Z</time>
      </trkpt>
      <trkpt lat="43.97496" lon="5.34253">
        <ele>601.79998779297</ele>
        <time>2019-03-16T10:46:00Z</time>
      </trkpt>
      <trkpt lat="43.97508" lon="5.34252">
        <ele>604</ele>
        <time>2019-03-16T10:46:17Z</time>
      </trkpt>
      <trkpt lat="43.97519" lon="5.34246">
        <ele>606.40002441406</ele>
        <time>2019-03-16T10:46:34Z</time>
      </trkpt>
      <trkpt lat="43.97534" lon="5.34245">
        <ele>609.40002441406</ele>
        <time>2019-03-16T10:46:57Z</time>
      </trkpt>
      <trkpt lat="43.97543" lon="5.34249">
        <ele>611.79998779297</ele>
        <time>2019-03-16T10:47:15Z</time>
      </trkpt>
      <trkpt lat="43.97549" lon="5.34246">
        <ele>612.59997558594</ele>
        <time>2019-03-16T10:47:37Z</time>
      </trkpt>
      <trkpt lat="43.97558" lon="5.34235">
        <ele>614.59997558594</ele>
        <time>2019-03-16T10:47:54Z</time>
      </trkpt>
      <trkpt lat="43.97568" lon="5.34227">
        <ele>617</ele>
        <time>2019-03-16T10:48:11Z</time>
      </trkpt>
      <trkpt lat="43.97579" lon="5.34221">
        <ele>618.79998779297</ele>
        <time>2019-03-16T10:48:26Z</time>
      </trkpt>
      <trkpt lat="43.97589" lon="5.34213">
        <ele>621</ele>
        <time>2019-03-16T10:48:42Z</time>
      </trkpt>
      <trkpt lat="43.976" lon="5.34204">
        <ele>623.20001220703</ele>
        <time>2019-03-16T10:49:01Z</time>
      </trkpt>
      <trkpt lat="43.97612" lon="5.34198">
        <ele>625.20001220703</ele>
        <time>2019-03-16T10:49:17Z</time>
      </trkpt>
      <trkpt lat="43.97627" lon="5.34186">
        <ele>627.40002441406</ele>
        <time>2019-03-16T10:49:38Z</time>
      </trkpt>
      <trkpt lat="43.9763" lon="5.34185">
        <ele>628.20001220703</ele>
        <time>2019-03-16T10:49:41Z</time>
      </trkpt>
      <trkpt lat="43.97644" lon="5.34177">
        <ele>629.59997558594</ele>
        <time>2019-03-16T10:50:00Z</time>
      </trkpt>
      <trkpt lat="43.97656" lon="5.34171">
        <ele>632</ele>
        <time>2019-03-16T10:50:20Z</time>
      </trkpt>
      <trkpt lat="43.97663" lon="5.34176">
        <ele>633.59997558594</ele>
        <time>2019-03-16T10:50:39Z</time>
      </trkpt>
      <trkpt lat="43.97674" lon="5.34168">
        <ele>635.79998779297</ele>
        <time>2019-03-16T10:50:57Z</time>
      </trkpt>
      <trkpt lat="43.97687" lon="5.34167">
        <ele>637.59997558594</ele>
        <time>2019-03-16T10:51:16Z</time>
      </trkpt>
      <trkpt lat="43.97696" lon="5.34174">
        <ele>640.40002441406</ele>
        <time>2019-03-16T10:51:33Z</time>
      </trkpt>
      <trkpt lat="43.97701" lon="5.34186">
        <ele>643.59997558594</ele>
        <time>2019-03-16T10:51:53Z</time>
      </trkpt>
      <trkpt lat="43.9771" lon="5.34206">
        <ele>645</ele>
        <time>2019-03-16T10:52:13Z</time>
      </trkpt>
      <trkpt lat="43.97712" lon="5.34209">
        <ele>646.20001220703</ele>
        <time>2019-03-16T10:52:33Z</time>
      </trkpt>
      <trkpt lat="43.97719" lon="5.34213">
        <ele>646</ele>
        <time>2019-03-16T10:52:49Z</time>
      </trkpt>
      <trkpt lat="43.97727" lon="5.34209">
        <ele>648</ele>
        <time>2019-03-16T10:53:04Z</time>
      </trkpt>
      <trkpt lat="43.97736" lon="5.34199">
        <ele>650.79998779297</ele>
        <time>2019-03-16T10:53:23Z</time>
      </trkpt>
      <trkpt lat="43.97745" lon="5.3419">
        <ele>653.59997558594</ele>
        <time>2019-03-16T10:53:42Z</time>
      </trkpt>
      <trkpt lat="43.97754" lon="5.34175">
        <ele>655.40002441406</ele>
        <time>2019-03-16T10:54:01Z</time>
      </trkpt>
      <trkpt lat="43.97764" lon="5.34166">
        <ele>657.40002441406</ele>
        <time>2019-03-16T10:54:17Z</time>
      </trkpt>
      <trkpt lat="43.97772" lon="5.34156">
        <ele>659.40002441406</ele>
        <time>2019-03-16T10:54:34Z</time>
      </trkpt>
      <trkpt lat="43.97782" lon="5.34146">
        <ele>662.20001220703</ele>
        <time>2019-03-16T10:54:55Z</time>
      </trkpt>
      <trkpt lat="43.97796" lon="5.34145">
        <ele>664.40002441406</ele>
        <time>2019-03-16T10:55:15Z</time>
      </trkpt>
      <trkpt lat="43.97806" lon="5.34141">
        <ele>667</ele>
        <time>2019-03-16T10:55:33Z</time>
      </trkpt>
      <trkpt lat="43.97819" lon="5.34145">
        <ele>669.40002441406</ele>
        <time>2019-03-16T10:55:51Z</time>
      </trkpt>
      <trkpt lat="43.97829" lon="5.34152">
        <ele>671.59997558594</ele>
        <time>2019-03-16T10:56:10Z</time>
      </trkpt>
      <trkpt lat="43.97837" lon="5.34162">
        <ele>674</ele>
        <time>2019-03-16T10:56:28Z</time>
      </trkpt>
      <trkpt lat="43.97848" lon="5.34166">
        <ele>675.79998779297</ele>
        <time>2019-03-16T10:56:45Z</time>
      </trkpt>
      <trkpt lat="43.97858" lon="5.34157">
        <ele>677.59997558594</ele>
        <time>2019-03-16T10:57:02Z</time>
      </trkpt>
      <trkpt lat="43.97868" lon="5.34145">
        <ele>680</ele>
        <time>2019-03-16T10:57:21Z</time>
      </trkpt>
      <trkpt lat="43.97877" lon="5.3414">
        <ele>682.40002441406</ele>
        <time>2019-03-16T10:57:36Z</time>
      </trkpt>
      <trkpt lat="43.97891" lon="5.34146">
        <ele>684</ele>
        <time>2019-03-16T10:57:54Z</time>
      </trkpt>
      <trkpt lat="43.97903" lon="5.34158">
        <ele>686.59997558594</ele>
        <time>2019-03-16T10:58:14Z</time>
      </trkpt>
      <trkpt lat="43.97913" lon="5.34172">
        <ele>687.40002441406</ele>
        <time>2019-03-16T10:58:30Z</time>
      </trkpt>
      <trkpt lat="43.97923" lon="5.34184">
        <ele>688.40002441406</ele>
        <time>2019-03-16T10:58:46Z</time>
      </trkpt>
      <trkpt lat="43.97938" lon="5.34198">
        <ele>690.20001220703</ele>
        <time>2019-03-16T10:59:05Z</time>
      </trkpt>
      <trkpt lat="43.97952" lon="5.34204">
        <ele>691.59997558594</ele>
        <time>2019-03-16T10:59:22Z</time>
      </trkpt>
      <trkpt lat="43.97967" lon="5.34209">
        <ele>693.59997558594</ele>
        <time>2019-03-16T10:59:40Z</time>
      </trkpt>
      <trkpt lat="43.97981" lon="5.34209">
        <ele>695.59997558594</ele>
        <time>2019-03-16T10:59:57Z</time>
      </trkpt>
      <trkpt lat="43.97994" lon="5.34211">
        <ele>697.20001220703</ele>
        <time>2019-03-16T11:00:10Z</time>
      </trkpt>
      <trkpt lat="43.97997" lon="5.34212">
        <ele>697.40002441406</ele>
        <time>2019-03-16T11:00:12Z</time>
      </trkpt>
      <trkpt lat="43.98006" lon="5.34212">
        <ele>699.40002441406</ele>
        <time>2019-03-16T11:00:26Z</time>
      </trkpt>
      <trkpt lat="43.98023" lon="5.34215">
        <ele>701.40002441406</ele>
        <time>2019-03-16T11:00:45Z</time>
      </trkpt>
      <trkpt lat="43.98028" lon="5.34216">
        <ele>702</ele>
        <time>2019-03-16T11:00:51Z</time>
      </trkpt>
      <trkpt lat="43.98042" lon="5.3422">
        <ele>703.20001220703</ele>
        <time>2019-03-16T11:01:07Z</time>
      </trkpt>
      <trkpt lat="43.98055" lon="5.34211">
        <ele>704.79998779297</ele>
        <time>2019-03-16T11:01:26Z</time>
      </trkpt>
      <trkpt lat="43.98061" lon="5.34196">
        <ele>707</ele>
        <time>2019-03-16T11:01:41Z</time>
      </trkpt>
      <trkpt lat="43.98071" lon="5.3418">
        <ele>709.79998779297</ele>
        <time>2019-03-16T11:01:59Z</time>
      </trkpt>
      <trkpt lat="43.98082" lon="5.34167">
        <ele>711.59997558594</ele>
        <time>2019-03-16T11:02:18Z</time>
      </trkpt>
      <trkpt lat="43.98095" lon="5.34159">
        <ele>714</ele>
        <time>2019-03-16T11:02:35Z</time>
      </trkpt>
      <trkpt lat="43.98105" lon="5.34143">
        <ele>716.40002441406</ele>
        <time>2019-03-16T11:02:54Z</time>
      </trkpt>
      <trkpt lat="43.98115" lon="5.34121">
        <ele>719.40002441406</ele>
        <time>2019-03-16T11:03:15Z</time>
      </trkpt>
      <trkpt lat="43.98126" lon="5.3411">
        <ele>721.59997558594</ele>
        <time>2019-03-16T11:03:31Z</time>
      </trkpt>
      <trkpt lat="43.9814" lon="5.3411">
        <ele>723.59997558594</ele>
        <time>2019-03-16T11:03:48Z</time>
      </trkpt>
      <trkpt lat="43.98151" lon="5.34112">
        <ele>724.79998779297</ele>
        <time>2019-03-16T11:04:02Z</time>
      </trkpt>
      <trkpt lat="43.98167" lon="5.34112">
        <ele>727</ele>
        <time>2019-03-16T11:04:22Z</time>
      </trkpt>
      <trkpt lat="43.98183" lon="5.34112">
        <ele>728.59997558594</ele>
        <time>2019-03-16T11:04:41Z</time>
      </trkpt>
      <trkpt lat="43.98198" lon="5.34118">
        <ele>730.40002441406</ele>
        <time>2019-03-16T11:04:57Z</time>
      </trkpt>
      <trkpt lat="43.98212" lon="5.34127">
        <ele>731.59997558594</ele>
        <time>2019-03-16T11:05:15Z</time>
      </trkpt>
      <trkpt lat="43.98227" lon="5.34141">
        <ele>733.20001220703</ele>
        <time>2019-03-16T11:05:35Z</time>
      </trkpt>
      <trkpt lat="43.98242" lon="5.3415">
        <ele>733.59997558594</ele>
        <time>2019-03-16T11:05:54Z</time>
      </trkpt>
      <trkpt lat="43.98257" lon="5.34156">
        <ele>735</ele>
        <time>2019-03-16T11:06:12Z</time>
      </trkpt>
      <trkpt lat="43.98273" lon="5.34164">
        <ele>736</ele>
        <time>2019-03-16T11:06:32Z</time>
      </trkpt>
      <trkpt lat="43.98291" lon="5.34178">
        <ele>737.20001220703</ele>
        <time>2019-03-16T11:06:54Z</time>
      </trkpt>
      <trkpt lat="43.98302" lon="5.34188">
        <ele>738</ele>
        <time>2019-03-16T11:07:08Z</time>
      </trkpt>
      <trkpt lat="43.98319" lon="5.34193">
        <ele>738.79998779297</ele>
        <time>2019-03-16T11:07:29Z</time>
      </trkpt>
      <trkpt lat="43.98326" lon="5.34191">
        <ele>739.40002441406</ele>
        <time>2019-03-16T11:07:36Z</time>
      </trkpt>
      <trkpt lat="43.98338" lon="5.3419">
        <ele>740</ele>
        <time>2019-03-16T11:07:44Z</time>
      </trkpt>
      <trkpt lat="43.98359" lon="5.34192">
        <ele>741</ele>
        <time>2019-03-16T11:08:03Z</time>
      </trkpt>
      <trkpt lat="43.98371" lon="5.34186">
        <ele>741.20001220703</ele>
        <time>2019-03-16T11:08:19Z</time>
      </trkpt>
      <trkpt lat="43.98383" lon="5.34182">
        <ele>741.40002441406</ele>
        <time>2019-03-16T11:08:32Z</time>
      </trkpt>
      <trkpt lat="43.984" lon="5.34191">
        <ele>742.40002441406</ele>
        <time>2019-03-16T11:08:47Z</time>
      </trkpt>
      <trkpt lat="43.98419" lon="5.34201">
        <ele>742.59997558594</ele>
        <time>2019-03-16T11:09:04Z</time>
      </trkpt>
      <trkpt lat="43.98433" lon="5.34205">
        <ele>742.79998779297</ele>
        <time>2019-03-16T11:09:16Z</time>
      </trkpt>
      <trkpt lat="43.98437" lon="5.34206">
        <ele>742.79998779297</ele>
        <time>2019-03-16T11:09:31Z</time>
      </trkpt>
      <trkpt lat="43.98451" lon="5.34203">
        <ele>743.20001220703</ele>
        <time>2019-03-16T11:09:57Z</time>
      </trkpt>
      <trkpt lat="43.98479" lon="5.34213">
        <ele>742.59997558594</ele>
        <time>2019-03-16T11:10:24Z</time>
      </trkpt>
      <trkpt lat="43.98493" lon="5.34221">
        <ele>741.59997558594</ele>
        <time>2019-03-16T11:10:38Z</time>
      </trkpt>
      <trkpt lat="43.985" lon="5.34221">
        <ele>741.20001220703</ele>
        <time>2019-03-16T11:10:45Z</time>
      </trkpt>
      <trkpt lat="43.98502" lon="5.34221">
        <ele>741.20001220703</ele>
        <time>2019-03-16T11:10:47Z</time>
      </trkpt>
      <trkpt lat="43.98516" lon="5.34225">
        <ele>741.20001220703</ele>
        <time>2019-03-16T11:10:58Z</time>
      </trkpt>
      <trkpt lat="43.98538" lon="5.34234">
        <ele>742.20001220703</ele>
        <time>2019-03-16T11:11:21Z</time>
      </trkpt>
      <trkpt lat="43.98547" lon="5.34237">
        <ele>742.59997558594</ele>
        <time>2019-03-16T11:11:51Z</time>
      </trkpt>
      <trkpt lat="43.9856" lon="5.34246">
        <ele>742.79998779297</ele>
        <time>2019-03-16T11:12:12Z</time>
      </trkpt>
      <trkpt lat="43.9857" lon="5.34251">
        <ele>743.40002441406</ele>
        <time>2019-03-16T11:12:32Z</time>
      </trkpt>
      <trkpt lat="43.98578" lon="5.34253">
        <ele>743.59997558594</ele>
        <time>2019-03-16T11:12:59Z</time>
      </trkpt>
      <trkpt lat="43.98583" lon="5.34271">
        <ele>744</ele>
        <time>2019-03-16T11:13:16Z</time>
      </trkpt>
      <trkpt lat="43.98577" lon="5.34284">
        <ele>745.40002441406</ele>
        <time>2019-03-16T11:13:32Z</time>
      </trkpt>
      <trkpt lat="43.98581" lon="5.3429">
        <ele>747.20001220703</ele>
        <time>2019-03-16T11:14:03Z</time>
      </trkpt>
      <trkpt lat="43.98582" lon="5.34293">
        <ele>750</ele>
        <time>2019-03-16T11:14:49Z</time>
      </trkpt>
      <trkpt lat="43.98579" lon="5.34283">
        <ele>748</ele>
        <time>2019-03-16T11:15:11Z</time>
      </trkpt>
      <trkpt lat="43.98582" lon="5.34278">
        <ele>746.20001220703</ele>
        <time>2019-03-16T11:15:30Z</time>
      </trkpt>
      <trkpt lat="43.98576" lon="5.34283">
        <ele>746.20001220703</ele>
        <time>2019-03-16T11:15:51Z</time>
      </trkpt>
      <trkpt lat="43.98577" lon="5.34295">
        <ele>746.59997558594</ele>
        <time>2019-03-16T11:16:06Z</time>
      </trkpt>
      <trkpt lat="43.98579" lon="5.34299">
        <ele>746.20001220703</ele>
        <time>2019-03-16T11:16:27Z</time>
      </trkpt>
      <trkpt lat="43.98577" lon="5.34302">
        <ele>745.79998779297</ele>
        <time>2019-03-16T11:17:22Z</time>
      </trkpt>
      <trkpt lat="43.98578" lon="5.343">
        <ele>746.20001220703</ele>
        <time>2019-03-16T11:17:50Z</time>
      </trkpt>
      <trkpt lat="43.98578" lon="5.34301">
        <ele>745.79998779297</ele>
        <time>2019-03-16T11:19:19Z</time>
      </trkpt>
      <trkpt lat="43.98577" lon="5.34298">
        <ele>746</ele>
        <time>2019-03-16T11:19:50Z</time>
      </trkpt>
      <trkpt lat="43.98577" lon="5.343">
        <ele>745.59997558594</ele>
        <time>2019-03-16T11:20:21Z</time>
      </trkpt>
      <trkpt lat="43.98579" lon="5.34296">
        <ele>746.20001220703</ele>
        <time>2019-03-16T11:20:47Z</time>
      </trkpt>
      <trkpt lat="43.98578" lon="5.34293">
        <ele>746.59997558594</ele>
        <time>2019-03-16T11:21:12Z</time>
      </trkpt>
      <trkpt lat="43.98581" lon="5.343">
        <ele>746.79998779297</ele>
        <time>2019-03-16T11:21:28Z</time>
      </trkpt>
      <trkpt lat="43.9859" lon="5.3431">
        <ele>747</ele>
        <time>2019-03-16T11:21:42Z</time>
      </trkpt>
      <trkpt lat="43.98595" lon="5.3433">
        <ele>747.20001220703</ele>
        <time>2019-03-16T11:21:59Z</time>
      </trkpt>
      <trkpt lat="43.98602" lon="5.34349">
        <ele>747</ele>
        <time>2019-03-16T11:22:17Z</time>
      </trkpt>
      <trkpt lat="43.98606" lon="5.34362">
        <ele>747</ele>
        <time>2019-03-16T11:22:28Z</time>
      </trkpt>
      <trkpt lat="43.98608" lon="5.34377">
        <ele>747</ele>
        <time>2019-03-16T11:22:45Z</time>
      </trkpt>
      <trkpt lat="43.98607" lon="5.34384">
        <ele>748.20001220703</ele>
        <time>2019-03-16T11:22:58Z</time>
      </trkpt>
      <trkpt lat="43.98606" lon="5.34388">
        <ele>748.20001220703</ele>
        <time>2019-03-16T11:23:01Z</time>
      </trkpt>
      <trkpt lat="43.986" lon="5.34404">
        <ele>748.20001220703</ele>
        <time>2019-03-16T11:23:16Z</time>
      </trkpt>
      <trkpt lat="43.98593" lon="5.34418">
        <ele>748.40002441406</ele>
        <time>2019-03-16T11:23:31Z</time>
      </trkpt>
      <trkpt lat="43.98582" lon="5.34424">
        <ele>748.59997558594</ele>
        <time>2019-03-16T11:23:48Z</time>
      </trkpt>
      <trkpt lat="43.98576" lon="5.34439">
        <ele>747.20001220703</ele>
        <time>2019-03-16T11:24:08Z</time>
      </trkpt>
      <trkpt lat="43.98574" lon="5.34451">
        <ele>750.20001220703</ele>
        <time>2019-03-16T11:24:23Z</time>
      </trkpt>
      <trkpt lat="43.98575" lon="5.34455">
        <ele>752.79998779297</ele>
        <time>2019-03-16T11:24:52Z</time>
      </trkpt>
      <trkpt lat="43.98576" lon="5.34471">
        <ele>752.59997558594</ele>
        <time>2019-03-16T11:25:08Z</time>
      </trkpt>
      <trkpt lat="43.98577" lon="5.3448">
        <ele>751.59997558594</ele>
        <time>2019-03-16T11:25:26Z</time>
      </trkpt>
      <trkpt lat="43.98582" lon="5.34476">
        <ele>752.40002441406</ele>
        <time>2019-03-16T11:26:12Z</time>
      </trkpt>
      <trkpt lat="43.98593" lon="5.34483">
        <ele>754.40002441406</ele>
        <time>2019-03-16T11:26:29Z</time>
      </trkpt>
      <trkpt lat="43.98605" lon="5.3449">
        <ele>756.40002441406</ele>
        <time>2019-03-16T11:26:48Z</time>
      </trkpt>
      <trkpt lat="43.9861" lon="5.34479">
        <ele>758.59997558594</ele>
        <time>2019-03-16T11:27:06Z</time>
      </trkpt>
      <trkpt lat="43.98616" lon="5.34476">
        <ele>759.79998779297</ele>
        <time>2019-03-16T11:27:38Z</time>
      </trkpt>
      <trkpt lat="43.98631" lon="5.34477">
        <ele>762.40002441406</ele>
        <time>2019-03-16T11:27:59Z</time>
      </trkpt>
      <trkpt lat="43.98631" lon="5.34476">
        <ele>762.59997558594</ele>
        <time>2019-03-16T11:28:00Z</time>
      </trkpt>
      <trkpt lat="43.98643" lon="5.34468">
        <ele>765</ele>
        <time>2019-03-16T11:28:16Z</time>
      </trkpt>
      <trkpt lat="43.98651" lon="5.34461">
        <ele>767</ele>
        <time>2019-03-16T11:28:33Z</time>
      </trkpt>
      <trkpt lat="43.98653" lon="5.34449">
        <ele>766.59997558594</ele>
        <time>2019-03-16T11:28:47Z</time>
      </trkpt>
      <trkpt lat="43.98656" lon="5.34438">
        <ele>765.79998779297</ele>
        <time>2019-03-16T11:29:00Z</time>
      </trkpt>
      <trkpt lat="43.98664" lon="5.34433">
        <ele>764.20001220703</ele>
        <time>2019-03-16T11:29:16Z</time>
      </trkpt>
      <trkpt lat="43.98667" lon="5.3443">
        <ele>763.40002441406</ele>
        <time>2019-03-16T11:29:50Z</time>
      </trkpt>
      <trkpt lat="43.98669" lon="5.34428">
        <ele>762.20001220703</ele>
        <time>2019-03-16T11:30:11Z</time>
      </trkpt>
      <trkpt lat="43.98669" lon="5.34428">
        <ele>761.79998779297</ele>
        <time>2019-03-16T11:30:43Z</time>
      </trkpt>
      <trkpt lat="43.98666" lon="5.34418">
        <ele>761.79998779297</ele>
        <time>2019-03-16T11:31:16Z</time>
      </trkpt>
      <trkpt lat="43.98658" lon="5.34403">
        <ele>760</ele>
        <time>2019-03-16T11:31:33Z</time>
      </trkpt>
      <trkpt lat="43.98647" lon="5.34393">
        <ele>759.40002441406</ele>
        <time>2019-03-16T11:31:49Z</time>
      </trkpt>
      <trkpt lat="43.98638" lon="5.34384">
        <ele>757.20001220703</ele>
        <time>2019-03-16T11:32:07Z</time>
      </trkpt>
      <trkpt lat="43.9863" lon="5.34377">
        <ele>755.20001220703</ele>
        <time>2019-03-16T11:32:21Z</time>
      </trkpt>
      <trkpt lat="43.98627" lon="5.34366">
        <ele>753.59997558594</ele>
        <time>2019-03-16T11:32:36Z</time>
      </trkpt>
      <trkpt lat="43.98629" lon="5.34355">
        <ele>751.79998779297</ele>
        <time>2019-03-16T11:32:51Z</time>
      </trkpt>
      <trkpt lat="43.98624" lon="5.34361">
        <ele>751.79998779297</ele>
        <time>2019-03-16T11:33:06Z</time>
      </trkpt>
      <trkpt lat="43.98614" lon="5.3436">
        <ele>750.59997558594</ele>
        <time>2019-03-16T11:33:22Z</time>
      </trkpt>
      <trkpt lat="43.98603" lon="5.3435">
        <ele>748.20001220703</ele>
        <time>2019-03-16T11:33:40Z</time>
      </trkpt>
      <trkpt lat="43.98596" lon="5.34334">
        <ele>747</ele>
        <time>2019-03-16T11:33:57Z</time>
      </trkpt>
      <trkpt lat="43.98589" lon="5.34311">
        <ele>747</ele>
        <time>2019-03-16T11:34:15Z</time>
      </trkpt>
      <trkpt lat="43.98578" lon="5.34299">
        <ele>746.79998779297</ele>
        <time>2019-03-16T11:34:33Z</time>
      </trkpt>
      <trkpt lat="43.98584" lon="5.34302">
        <ele>746.79998779297</ele>
        <time>2019-03-16T11:34:57Z</time>
      </trkpt>
      <trkpt lat="43.98588" lon="5.34306">
        <ele>747.20001220703</ele>
        <time>2019-03-16T11:35:18Z</time>
      </trkpt>
      <trkpt lat="43.98588" lon="5.34306">
        <ele>747.20001220703</ele>
        <time>2019-03-16T11:35:55Z</time>
      </trkpt>
      <trkpt lat="43.98588" lon="5.34301">
        <ele>747.20001220703</ele>
        <time>2019-03-16T11:36:19Z</time>
      </trkpt>
      <trkpt lat="43.9859" lon="5.34303">
        <ele>747.40002441406</ele>
        <time>2019-03-16T11:36:37Z</time>
      </trkpt>
      <trkpt lat="43.98591" lon="5.34299">
        <ele>747.20001220703</ele>
        <time>2019-03-16T11:37:08Z</time>
      </trkpt>
      <trkpt lat="43.98593" lon="5.34303">
        <ele>747.40002441406</ele>
        <time>2019-03-16T11:37:27Z</time>
      </trkpt>
      <trkpt lat="43.98591" lon="5.34305">
        <ele>747.59997558594</ele>
        <time>2019-03-16T11:37:45Z</time>
      </trkpt>
      <trkpt lat="43.98587" lon="5.34306">
        <ele>747.20001220703</ele>
        <time>2019-03-16T11:38:16Z</time>
      </trkpt>
      <trkpt lat="43.98585" lon="5.34305">
        <ele>747</ele>
        <time>2019-03-16T11:38:40Z</time>
      </trkpt>
      <trkpt lat="43.98585" lon="5.34303">
        <ele>746.59997558594</ele>
        <time>2019-03-16T11:39:03Z</time>
      </trkpt>
      <trkpt lat="43.98581" lon="5.34302">
        <ele>746.40002441406</ele>
        <time>2019-03-16T11:39:27Z</time>
      </trkpt>
      <trkpt lat="43.98581" lon="5.34305">
        <ele>746.40002441406</ele>
        <time>2019-03-16T11:39:50Z</time>
      </trkpt>
      <trkpt lat="43.98584" lon="5.34301">
        <ele>746.20001220703</ele>
        <time>2019-03-16T11:40:10Z</time>
      </trkpt>
      <trkpt lat="43.98587" lon="5.34302">
        <ele>747</ele>
        <time>2019-03-16T11:40:28Z</time>
      </trkpt>
      <trkpt lat="43.98583" lon="5.34301">
        <ele>746.79998779297</ele>
        <time>2019-03-16T11:40:52Z</time>
      </trkpt>
      <trkpt lat="43.98579" lon="5.343">
        <ele>745.79998779297</ele>
        <time>2019-03-16T11:41:09Z</time>
      </trkpt>
      <trkpt lat="43.98578" lon="5.34299">
        <ele>745.59997558594</ele>
        <time>2019-03-16T11:42:09Z</time>
      </trkpt>
      <trkpt lat="43.98579" lon="5.34298">
        <ele>745.79998779297</ele>
        <time>2019-03-16T11:48:20Z</time>
      </trkpt>
      <trkpt lat="43.9858" lon="5.34296">
        <ele>746.59997558594</ele>
        <time>2019-03-16T11:56:59Z</time>
      </trkpt>
      <trkpt lat="43.9858" lon="5.34296">
        <ele>746.40002441406</ele>
        <time>2019-03-16T12:03:13Z</time>
      </trkpt>
      <trkpt lat="43.9858" lon="5.34294">
        <ele>746.40002441406</ele>
        <time>2019-03-16T12:05:20Z</time>
      </trkpt>
      <trkpt lat="43.98579" lon="5.34295">
        <ele>747</ele>
        <time>2019-03-16T12:07:39Z</time>
      </trkpt>
      <trkpt lat="43.9858" lon="5.34298">
        <ele>746.59997558594</ele>
        <time>2019-03-16T12:09:43Z</time>
      </trkpt>
      <trkpt lat="43.98579" lon="5.343">
        <ele>746.79998779297</ele>
        <time>2019-03-16T12:12:29Z</time>
      </trkpt>
      <trkpt lat="43.98578" lon="5.343">
        <ele>747</ele>
        <time>2019-03-16T12:14:19Z</time>
      </trkpt>
      <trkpt lat="43.9858" lon="5.34298">
        <ele>747.59997558594</ele>
        <time>2019-03-16T12:15:44Z</time>
      </trkpt>
      <trkpt lat="43.98579" lon="5.34289">
        <ele>747.59997558594</ele>
        <time>2019-03-16T12:16:01Z</time>
      </trkpt>
      <trkpt lat="43.98579" lon="5.34286">
        <ele>747.59997558594</ele>
        <time>2019-03-16T12:16:05Z</time>
      </trkpt>
      <trkpt lat="43.98584" lon="5.3426">
        <ele>746.59997558594</ele>
        <time>2019-03-16T12:16:25Z</time>
      </trkpt>
      <trkpt lat="43.98572" lon="5.34252">
        <ele>744.79998779297</ele>
        <time>2019-03-16T12:16:43Z</time>
      </trkpt>
      <trkpt lat="43.98564" lon="5.34252">
        <ele>744.40002441406</ele>
        <time>2019-03-16T12:16:59Z</time>
      </trkpt>
      <trkpt lat="43.98552" lon="5.34243">
        <ele>744.59997558594</ele>
        <time>2019-03-16T12:17:17Z</time>
      </trkpt>
      <trkpt lat="43.98535" lon="5.34234">
        <ele>744.20001220703</ele>
        <time>2019-03-16T12:17:36Z</time>
      </trkpt>
      <trkpt lat="43.98507" lon="5.34226">
        <ele>743.40002441406</ele>
        <time>2019-03-16T12:18:04Z</time>
      </trkpt>
      <trkpt lat="43.98489" lon="5.34215">
        <ele>743.40002441406</ele>
        <time>2019-03-16T12:18:24Z</time>
      </trkpt>
      <trkpt lat="43.98468" lon="5.34204">
        <ele>745.20001220703</ele>
        <time>2019-03-16T12:18:44Z</time>
      </trkpt>
      <trkpt lat="43.9844" lon="5.342">
        <ele>745.40002441406</ele>
        <time>2019-03-16T12:19:13Z</time>
      </trkpt>
      <trkpt lat="43.98429" lon="5.34214">
        <ele>744.59997558594</ele>
        <time>2019-03-16T12:19:33Z</time>
      </trkpt>
      <trkpt lat="43.98416" lon="5.34228">
        <ele>743.79998779297</ele>
        <time>2019-03-16T12:19:54Z</time>
      </trkpt>
      <trkpt lat="43.98406" lon="5.34237">
        <ele>742.59997558594</ele>
        <time>2019-03-16T12:20:07Z</time>
      </trkpt>
      <trkpt lat="43.98388" lon="5.34248">
        <ele>741.20001220703</ele>
        <time>2019-03-16T12:20:24Z</time>
      </trkpt>
      <trkpt lat="43.98379" lon="5.34253">
        <ele>741</ele>
        <time>2019-03-16T12:20:40Z</time>
      </trkpt>
      <trkpt lat="43.98372" lon="5.34267">
        <ele>740</ele>
        <time>2019-03-16T12:20:58Z</time>
      </trkpt>
      <trkpt lat="43.98365" lon="5.3427">
        <ele>738.40002441406</ele>
        <time>2019-03-16T12:21:16Z</time>
      </trkpt>
      <trkpt lat="43.98361" lon="5.3427">
        <ele>736.79998779297</ele>
        <time>2019-03-16T12:21:32Z</time>
      </trkpt>
      <trkpt lat="43.98352" lon="5.34272">
        <ele>737.79998779297</ele>
        <time>2019-03-16T12:21:47Z</time>
      </trkpt>
      <trkpt lat="43.98342" lon="5.34268">
        <ele>737.79998779297</ele>
        <time>2019-03-16T12:22:04Z</time>
      </trkpt>
      <trkpt lat="43.98332" lon="5.34271">
        <ele>737.40002441406</ele>
        <time>2019-03-16T12:22:22Z</time>
      </trkpt>
      <trkpt lat="43.98325" lon="5.34282">
        <ele>736.20001220703</ele>
        <time>2019-03-16T12:22:39Z</time>
      </trkpt>
      <trkpt lat="43.98319" lon="5.34285">
        <ele>736</ele>
        <time>2019-03-16T12:22:47Z</time>
      </trkpt>
      <trkpt lat="43.98309" lon="5.3429">
        <ele>735.40002441406</ele>
        <time>2019-03-16T12:23:01Z</time>
      </trkpt>
      <trkpt lat="43.98303" lon="5.34292">
        <ele>734.79998779297</ele>
        <time>2019-03-16T12:23:15Z</time>
      </trkpt>
      <trkpt lat="43.98293" lon="5.34293">
        <ele>733.59997558594</ele>
        <time>2019-03-16T12:23:38Z</time>
      </trkpt>
      <trkpt lat="43.98287" lon="5.34303">
        <ele>733.20001220703</ele>
        <time>2019-03-16T12:23:57Z</time>
      </trkpt>
      <trkpt lat="43.98278" lon="5.34308">
        <ele>731.59997558594</ele>
        <time>2019-03-16T12:24:11Z</time>
      </trkpt>
      <trkpt lat="43.98266" lon="5.34311">
        <ele>730.59997558594</ele>
        <time>2019-03-16T12:24:30Z</time>
      </trkpt>
      <trkpt lat="43.98252" lon="5.34312">
        <ele>730</ele>
        <time>2019-03-16T12:24:50Z</time>
      </trkpt>
      <trkpt lat="43.98244" lon="5.34323">
        <ele>729.79998779297</ele>
        <time>2019-03-16T12:25:07Z</time>
      </trkpt>
      <trkpt lat="43.98234" lon="5.34324">
        <ele>729.20001220703</ele>
        <time>2019-03-16T12:25:26Z</time>
      </trkpt>
      <trkpt lat="43.98228" lon="5.34313">
        <ele>727.79998779297</ele>
        <time>2019-03-16T12:25:42Z</time>
      </trkpt>
      <trkpt lat="43.98217" lon="5.34313">
        <ele>726.20001220703</ele>
        <time>2019-03-16T12:26:01Z</time>
      </trkpt>
      <trkpt lat="43.98205" lon="5.34319">
        <ele>724.59997558594</ele>
        <time>2019-03-16T12:26:18Z</time>
      </trkpt>
      <trkpt lat="43.98201" lon="5.34322">
        <ele>722.79998779297</ele>
        <time>2019-03-16T12:26:38Z</time>
      </trkpt>
      <trkpt lat="43.98193" lon="5.34332">
        <ele>722.20001220703</ele>
        <time>2019-03-16T12:27:08Z</time>
      </trkpt>
      <trkpt lat="43.98185" lon="5.34335">
        <ele>720.79998779297</ele>
        <time>2019-03-16T12:27:26Z</time>
      </trkpt>
      <trkpt lat="43.98178" lon="5.34344">
        <ele>720.20001220703</ele>
        <time>2019-03-16T12:27:45Z</time>
      </trkpt>
      <trkpt lat="43.98173" lon="5.34353">
        <ele>719.20001220703</ele>
        <time>2019-03-16T12:28:01Z</time>
      </trkpt>
      <trkpt lat="43.98165" lon="5.34361">
        <ele>718.40002441406</ele>
        <time>2019-03-16T12:28:16Z</time>
      </trkpt>
      <trkpt lat="43.98156" lon="5.34368">
        <ele>717.59997558594</ele>
        <time>2019-03-16T12:28:32Z</time>
      </trkpt>
      <trkpt lat="43.98151" lon="5.34372">
        <ele>716.20001220703</ele>
        <time>2019-03-16T12:29:03Z</time>
      </trkpt>
      <trkpt lat="43.98139" lon="5.34373">
        <ele>714</ele>
        <time>2019-03-16T12:29:20Z</time>
      </trkpt>
      <trkpt lat="43.98133" lon="5.34378">
        <ele>712.59997558594</ele>
        <time>2019-03-16T12:29:34Z</time>
      </trkpt>
      <trkpt lat="43.98126" lon="5.34379">
        <ele>711</ele>
        <time>2019-03-16T12:29:48Z</time>
      </trkpt>
      <trkpt lat="43.98113" lon="5.34385">
        <ele>708</ele>
        <time>2019-03-16T12:30:08Z</time>
      </trkpt>
      <trkpt lat="43.98108" lon="5.3439">
        <ele>706.20001220703</ele>
        <time>2019-03-16T12:30:26Z</time>
      </trkpt>
      <trkpt lat="43.98106" lon="5.34395">
        <ele>705.59997558594</ele>
        <time>2019-03-16T12:30:53Z</time>
      </trkpt>
      <trkpt lat="43.98105" lon="5.34396">
        <ele>705.40002441406</ele>
        <time>2019-03-16T12:31:47Z</time>
      </trkpt>
      <trkpt lat="43.981" lon="5.34394">
        <ele>705.40002441406</ele>
        <time>2019-03-16T12:32:07Z</time>
      </trkpt>
      <trkpt lat="43.98094" lon="5.34394">
        <ele>703.59997558594</ele>
        <time>2019-03-16T12:32:21Z</time>
      </trkpt>
      <trkpt lat="43.98093" lon="5.34388">
        <ele>702.59997558594</ele>
        <time>2019-03-16T12:32:36Z</time>
      </trkpt>
      <trkpt lat="43.98086" lon="5.34383">
        <ele>701.40002441406</ele>
        <time>2019-03-16T12:32:51Z</time>
      </trkpt>
      <trkpt lat="43.98078" lon="5.34391">
        <ele>699.20001220703</ele>
        <time>2019-03-16T12:33:09Z</time>
      </trkpt>
      <trkpt lat="43.98074" lon="5.34391">
        <ele>698.59997558594</ele>
        <time>2019-03-16T12:33:15Z</time>
      </trkpt>
      <trkpt lat="43.98066" lon="5.34395">
        <ele>695.79998779297</ele>
        <time>2019-03-16T12:33:34Z</time>
      </trkpt>
      <trkpt lat="43.98054" lon="5.34402">
        <ele>694.59997558594</ele>
        <time>2019-03-16T12:33:53Z</time>
      </trkpt>
      <trkpt lat="43.98045" lon="5.34413">
        <ele>694</ele>
        <time>2019-03-16T12:34:08Z</time>
      </trkpt>
      <trkpt lat="43.98034" lon="5.3442">
        <ele>692</ele>
        <time>2019-03-16T12:34:29Z</time>
      </trkpt>
      <trkpt lat="43.98024" lon="5.3443">
        <ele>690.59997558594</ele>
        <time>2019-03-16T12:34:49Z</time>
      </trkpt>
      <trkpt lat="43.9802" lon="5.34436">
        <ele>688.59997558594</ele>
        <time>2019-03-16T12:35:11Z</time>
      </trkpt>
      <trkpt lat="43.98018" lon="5.34439">
        <ele>688</ele>
        <time>2019-03-16T12:35:37Z</time>
      </trkpt>
      <trkpt lat="43.98017" lon="5.34435">
        <ele>688.59997558594</ele>
        <time>2019-03-16T12:36:31Z</time>
      </trkpt>
      <trkpt lat="43.98017" lon="5.34428">
        <ele>688.59997558594</ele>
        <time>2019-03-16T12:36:56Z</time>
      </trkpt>
      <trkpt lat="43.98006" lon="5.34421">
        <ele>685.59997558594</ele>
        <time>2019-03-16T12:37:17Z</time>
      </trkpt>
      <trkpt lat="43.97997" lon="5.34423">
        <ele>683</ele>
        <time>2019-03-16T12:37:33Z</time>
      </trkpt>
      <trkpt lat="43.97997" lon="5.34427">
        <ele>681.79998779297</ele>
        <time>2019-03-16T12:37:54Z</time>
      </trkpt>
      <trkpt lat="43.97991" lon="5.34427">
        <ele>681.79998779297</ele>
        <time>2019-03-16T12:38:37Z</time>
      </trkpt>
      <trkpt lat="43.97984" lon="5.34427">
        <ele>680.79998779297</ele>
        <time>2019-03-16T12:38:52Z</time>
      </trkpt>
      <trkpt lat="43.97972" lon="5.34428">
        <ele>679</ele>
        <time>2019-03-16T12:39:08Z</time>
      </trkpt>
      <trkpt lat="43.97964" lon="5.34433">
        <ele>677.20001220703</ele>
        <time>2019-03-16T12:39:23Z</time>
      </trkpt>
      <trkpt lat="43.97963" lon="5.34433">
        <ele>677</ele>
        <time>2019-03-16T12:39:45Z</time>
      </trkpt>
      <trkpt lat="43.97962" lon="5.34433">
        <ele>676.79998779297</ele>
        <time>2019-03-16T12:39:47Z</time>
      </trkpt>
      <trkpt lat="43.9795" lon="5.34435">
        <ele>676</ele>
        <time>2019-03-16T12:40:01Z</time>
      </trkpt>
      <trkpt lat="43.97944" lon="5.34436">
        <ele>675.79998779297</ele>
        <time>2019-03-16T12:40:16Z</time>
      </trkpt>
      <trkpt lat="43.97936" lon="5.34436">
        <ele>675.40002441406</ele>
        <time>2019-03-16T12:40:33Z</time>
      </trkpt>
      <trkpt lat="43.97928" lon="5.34437">
        <ele>675.40002441406</ele>
        <time>2019-03-16T12:40:48Z</time>
      </trkpt>
      <trkpt lat="43.97918" lon="5.34435">
        <ele>674</ele>
        <time>2019-03-16T12:41:13Z</time>
      </trkpt>
      <trkpt lat="43.97901" lon="5.34438">
        <ele>672.20001220703</ele>
        <time>2019-03-16T12:41:33Z</time>
      </trkpt>
      <trkpt lat="43.97885" lon="5.34445">
        <ele>672.40002441406</ele>
        <time>2019-03-16T12:41:51Z</time>
      </trkpt>
      <trkpt lat="43.97874" lon="5.34453">
        <ele>674</ele>
        <time>2019-03-16T12:42:09Z</time>
      </trkpt>
      <trkpt lat="43.97873" lon="5.34463">
        <ele>673.59997558594</ele>
        <time>2019-03-16T12:42:33Z</time>
      </trkpt>
      <trkpt lat="43.97878" lon="5.34473">
        <ele>671.20001220703</ele>
        <time>2019-03-16T12:42:56Z</time>
      </trkpt>
      <trkpt lat="43.9788" lon="5.34482">
        <ele>668</ele>
        <time>2019-03-16T12:43:10Z</time>
      </trkpt>
      <trkpt lat="43.97888" lon="5.34482">
        <ele>665</ele>
        <time>2019-03-16T12:43:36Z</time>
      </trkpt>
      <trkpt lat="43.97895" lon="5.34488">
        <ele>661.79998779297</ele>
        <time>2019-03-16T12:44:02Z</time>
      </trkpt>
      <trkpt lat="43.97899" lon="5.34489">
        <ele>658.79998779297</ele>
        <time>2019-03-16T12:44:18Z</time>
      </trkpt>
      <trkpt lat="43.97905" lon="5.34486">
        <ele>657.40002441406</ele>
        <time>2019-03-16T12:44:47Z</time>
      </trkpt>
      <trkpt lat="43.97915" lon="5.34483">
        <ele>658.20001220703</ele>
        <time>2019-03-16T12:45:04Z</time>
      </trkpt>
      <trkpt lat="43.97915" lon="5.34486">
        <ele>658.59997558594</ele>
        <time>2019-03-16T12:45:20Z</time>
      </trkpt>
      <trkpt lat="43.97922" lon="5.34492">
        <ele>658.20001220703</ele>
        <time>2019-03-16T12:45:49Z</time>
      </trkpt>
      <trkpt lat="43.97923" lon="5.34491">
        <ele>658.40002441406</ele>
        <time>2019-03-16T12:45:55Z</time>
      </trkpt>
      <trkpt lat="43.97922" lon="5.34487">
        <ele>658.79998779297</ele>
        <time>2019-03-16T12:46:04Z</time>
      </trkpt>
      <trkpt lat="43.97922" lon="5.34478">
        <ele>659.79998779297</ele>
        <time>2019-03-16T12:46:24Z</time>
      </trkpt>
      <trkpt lat="43.97934" lon="5.34469">
        <ele>662</ele>
        <time>2019-03-16T12:46:51Z</time>
      </trkpt>
      <trkpt lat="43.97939" lon="5.34463">
        <ele>662.40002441406</ele>
        <time>2019-03-16T12:47:24Z</time>
      </trkpt>
      <trkpt lat="43.97946" lon="5.34459">
        <ele>665.20001220703</ele>
        <time>2019-03-16T12:47:46Z</time>
      </trkpt>
      <trkpt lat="43.97949" lon="5.34457">
        <ele>664.79998779297</ele>
        <time>2019-03-16T12:48:04Z</time>
      </trkpt>
      <trkpt lat="43.97954" lon="5.34452">
        <ele>666.20001220703</ele>
        <time>2019-03-16T12:48:28Z</time>
      </trkpt>
      <trkpt lat="43.97956" lon="5.34452">
        <ele>666.79998779297</ele>
        <time>2019-03-16T12:49:15Z</time>
      </trkpt>
      <trkpt lat="43.97962" lon="5.34444">
        <ele>667.59997558594</ele>
        <time>2019-03-16T12:49:43Z</time>
      </trkpt>
      <trkpt lat="43.97971" lon="5.3443">
        <ele>670.79998779297</ele>
        <time>2019-03-16T12:50:09Z</time>
      </trkpt>
      <trkpt lat="43.97976" lon="5.34427">
        <ele>671.79998779297</ele>
        <time>2019-03-16T12:50:23Z</time>
      </trkpt>
      <trkpt lat="43.97992" lon="5.34423">
        <ele>673.20001220703</ele>
        <time>2019-03-16T12:50:47Z</time>
      </trkpt>
      <trkpt lat="43.98001" lon="5.34421">
        <ele>674.40002441406</ele>
        <time>2019-03-16T12:51:09Z</time>
      </trkpt>
      <trkpt lat="43.98011" lon="5.34418">
        <ele>676.40002441406</ele>
        <time>2019-03-16T12:51:32Z</time>
      </trkpt>
      <trkpt lat="43.98013" lon="5.3442">
        <ele>678</ele>
        <time>2019-03-16T12:51:51Z</time>
      </trkpt>
      <trkpt lat="43.98012" lon="5.34421">
        <ele>677.59997558594</ele>
        <time>2019-03-16T12:52:35Z</time>
      </trkpt>
      <trkpt lat="43.98013" lon="5.34419">
        <ele>677.59997558594</ele>
        <time>2019-03-16T12:52:45Z</time>
      </trkpt>
      <trkpt lat="43.98019" lon="5.34413">
        <ele>677.59997558594</ele>
        <time>2019-03-16T12:53:26Z</time>
      </trkpt>
      <trkpt lat="43.98016" lon="5.34414">
        <ele>677.79998779297</ele>
        <time>2019-03-16T12:53:48Z</time>
      </trkpt>
      <trkpt lat="43.98017" lon="5.34418">
        <ele>678.20001220703</ele>
        <time>2019-03-16T12:54:12Z</time>
      </trkpt>
      <trkpt lat="43.98013" lon="5.3442">
        <ele>677.59997558594</ele>
        <time>2019-03-16T12:54:40Z</time>
      </trkpt>
      <trkpt lat="43.98021" lon="5.34413">
        <ele>677.40002441406</ele>
        <time>2019-03-16T12:55:03Z</time>
      </trkpt>
      <trkpt lat="43.9803" lon="5.34415">
        <ele>678.59997558594</ele>
        <time>2019-03-16T12:55:22Z</time>
      </trkpt>
      <trkpt lat="43.98026" lon="5.34428">
        <ele>679</ele>
        <time>2019-03-16T12:55:36Z</time>
      </trkpt>
      <trkpt lat="43.98022" lon="5.34425">
        <ele>678</ele>
        <time>2019-03-16T12:55:59Z</time>
      </trkpt>
      <trkpt lat="43.98013" lon="5.34434">
        <ele>679.79998779297</ele>
        <time>2019-03-16T12:56:32Z</time>
      </trkpt>
      <trkpt lat="43.98012" lon="5.34438">
        <ele>680.40002441406</ele>
        <time>2019-03-16T12:56:55Z</time>
      </trkpt>
      <trkpt lat="43.98011" lon="5.34443">
        <ele>679.79998779297</ele>
        <time>2019-03-16T12:57:39Z</time>
      </trkpt>
      <trkpt lat="43.98014" lon="5.34448">
        <ele>680.40002441406</ele>
        <time>2019-03-16T12:58:18Z</time>
      </trkpt>
      <trkpt lat="43.98021" lon="5.34442">
        <ele>683.40002441406</ele>
        <time>2019-03-16T12:58:33Z</time>
      </trkpt>
      <trkpt lat="43.98023" lon="5.34436">
        <ele>684.40002441406</ele>
        <time>2019-03-16T12:58:40Z</time>
      </trkpt>
      <trkpt lat="43.98007" lon="5.34438">
        <ele>684.59997558594</ele>
        <time>2019-03-16T12:58:54Z</time>
      </trkpt>
      <trkpt lat="43.97996" lon="5.34455">
        <ele>683.59997558594</ele>
        <time>2019-03-16T12:59:58Z</time>
      </trkpt>
      <trkpt lat="43.97999" lon="5.34459">
        <ele>681</ele>
        <time>2019-03-16T13:00:17Z</time>
      </trkpt>
      <trkpt lat="43.97999" lon="5.34456">
        <ele>680.79998779297</ele>
        <time>2019-03-16T13:00:20Z</time>
      </trkpt>
      <trkpt lat="43.98001" lon="5.3443">
        <ele>678.40002441406</ele>
        <time>2019-03-16T13:00:44Z</time>
      </trkpt>
      <trkpt lat="43.97998" lon="5.34426">
        <ele>677.59997558594</ele>
        <time>2019-03-16T13:01:10Z</time>
      </trkpt>
      <trkpt lat="43.97992" lon="5.34424">
        <ele>675.20001220703</ele>
        <time>2019-03-16T13:01:32Z</time>
      </trkpt>
      <trkpt lat="43.97977" lon="5.34429">
        <ele>674.20001220703</ele>
        <time>2019-03-16T13:01:57Z</time>
      </trkpt>
      <trkpt lat="43.97964" lon="5.34433">
        <ele>671.79998779297</ele>
        <time>2019-03-16T13:02:23Z</time>
      </trkpt>
      <trkpt lat="43.97956" lon="5.34437">
        <ele>669.40002441406</ele>
        <time>2019-03-16T13:02:44Z</time>
      </trkpt>
      <trkpt lat="43.97942" lon="5.34434">
        <ele>667.20001220703</ele>
        <time>2019-03-16T13:03:08Z</time>
      </trkpt>
      <trkpt lat="43.97933" lon="5.34441">
        <ele>665</ele>
        <time>2019-03-16T13:03:28Z</time>
      </trkpt>
      <trkpt lat="43.97931" lon="5.34442">
        <ele>663.79998779297</ele>
        <time>2019-03-16T13:03:36Z</time>
      </trkpt>
      <trkpt lat="43.97929" lon="5.3446">
        <ele>663.59997558594</ele>
        <time>2019-03-16T13:04:11Z</time>
      </trkpt>
      <trkpt lat="43.9791" lon="5.34464">
        <ele>661</ele>
        <time>2019-03-16T13:04:36Z</time>
      </trkpt>
      <trkpt lat="43.97903" lon="5.34484">
        <ele>659.20001220703</ele>
        <time>2019-03-16T13:04:56Z</time>
      </trkpt>
      <trkpt lat="43.97898" lon="5.34486">
        <ele>660.20001220703</ele>
        <time>2019-03-16T13:05:24Z</time>
      </trkpt>
      <trkpt lat="43.97891" lon="5.34481">
        <ele>663.40002441406</ele>
        <time>2019-03-16T13:05:49Z</time>
      </trkpt>
      <trkpt lat="43.97882" lon="5.34482">
        <ele>666.40002441406</ele>
        <time>2019-03-16T13:06:05Z</time>
      </trkpt>
      <trkpt lat="43.97878" lon="5.34475">
        <ele>669.40002441406</ele>
        <time>2019-03-16T13:06:23Z</time>
      </trkpt>
      <trkpt lat="43.97874" lon="5.34466">
        <ele>672.59997558594</ele>
        <time>2019-03-16T13:06:45Z</time>
      </trkpt>
      <trkpt lat="43.97869" lon="5.3446">
        <ele>675.59997558594</ele>
        <time>2019-03-16T13:07:07Z</time>
      </trkpt>
      <trkpt lat="43.97864" lon="5.34454">
        <ele>678.59997558594</ele>
        <time>2019-03-16T13:07:24Z</time>
      </trkpt>
      <trkpt lat="43.97853" lon="5.34456">
        <ele>679.20001220703</ele>
        <time>2019-03-16T13:07:37Z</time>
      </trkpt>
      <trkpt lat="43.97841" lon="5.34452">
        <ele>679.59997558594</ele>
        <time>2019-03-16T13:07:53Z</time>
      </trkpt>
      <trkpt lat="43.9783" lon="5.34446">
        <ele>678.79998779297</ele>
        <time>2019-03-16T13:08:08Z</time>
      </trkpt>
      <trkpt lat="43.9782" lon="5.34439">
        <ele>677.40002441406</ele>
        <time>2019-03-16T13:08:25Z</time>
      </trkpt>
      <trkpt lat="43.97813" lon="5.34436">
        <ele>677</ele>
        <time>2019-03-16T13:08:47Z</time>
      </trkpt>
      <trkpt lat="43.97806" lon="5.34426">
        <ele>675.59997558594</ele>
        <time>2019-03-16T13:09:05Z</time>
      </trkpt>
      <trkpt lat="43.97796" lon="5.34419">
        <ele>674</ele>
        <time>2019-03-16T13:09:20Z</time>
      </trkpt>
      <trkpt lat="43.97784" lon="5.34411">
        <ele>671.59997558594</ele>
        <time>2019-03-16T13:09:39Z</time>
      </trkpt>
      <trkpt lat="43.97774" lon="5.34405">
        <ele>669.59997558594</ele>
        <time>2019-03-16T13:09:54Z</time>
      </trkpt>
      <trkpt lat="43.97772" lon="5.34404">
        <ele>668.20001220703</ele>
        <time>2019-03-16T13:10:19Z</time>
      </trkpt>
      <trkpt lat="43.97768" lon="5.34401">
        <ele>667.79998779297</ele>
        <time>2019-03-16T13:10:42Z</time>
      </trkpt>
      <trkpt lat="43.9776" lon="5.34397">
        <ele>666.59997558594</ele>
        <time>2019-03-16T13:10:56Z</time>
      </trkpt>
      <trkpt lat="43.9775" lon="5.34389">
        <ele>664.20001220703</ele>
        <time>2019-03-16T13:11:12Z</time>
      </trkpt>
      <trkpt lat="43.97745" lon="5.34387">
        <ele>662.20001220703</ele>
        <time>2019-03-16T13:11:29Z</time>
      </trkpt>
      <trkpt lat="43.97736" lon="5.34383">
        <ele>661.20001220703</ele>
        <time>2019-03-16T13:11:49Z</time>
      </trkpt>
      <trkpt lat="43.97724" lon="5.34376">
        <ele>658.40002441406</ele>
        <time>2019-03-16T13:12:08Z</time>
      </trkpt>
      <trkpt lat="43.97719" lon="5.3437">
        <ele>656.79998779297</ele>
        <time>2019-03-16T13:12:25Z</time>
      </trkpt>
      <trkpt lat="43.97713" lon="5.34365">
        <ele>656.40002441406</ele>
        <time>2019-03-16T13:12:43Z</time>
      </trkpt>
      <trkpt lat="43.97714" lon="5.34362">
        <ele>655.20001220703</ele>
        <time>2019-03-16T13:13:08Z</time>
      </trkpt>
      <trkpt lat="43.97716" lon="5.34362">
        <ele>655.40002441406</ele>
        <time>2019-03-16T13:13:32Z</time>
      </trkpt>
      <trkpt lat="43.97716" lon="5.34362">
        <ele>655.79998779297</ele>
        <time>2019-03-16T13:14:38Z</time>
      </trkpt>
      <trkpt lat="43.97713" lon="5.34365">
        <ele>656</ele>
        <time>2019-03-16T13:15:15Z</time>
      </trkpt>
      <trkpt lat="43.97708" lon="5.34361">
        <ele>654.59997558594</ele>
        <time>2019-03-16T13:15:41Z</time>
      </trkpt>
      <trkpt lat="43.97705" lon="5.34359">
        <ele>652.40002441406</ele>
        <time>2019-03-16T13:16:07Z</time>
      </trkpt>
      <trkpt lat="43.97701" lon="5.34358">
        <ele>650.40002441406</ele>
        <time>2019-03-16T13:16:29Z</time>
      </trkpt>
      <trkpt lat="43.97699" lon="5.34356">
        <ele>649.20001220703</ele>
        <time>2019-03-16T13:16:58Z</time>
      </trkpt>
      <trkpt lat="43.97695" lon="5.34355">
        <ele>648.59997558594</ele>
        <time>2019-03-16T13:17:21Z</time>
      </trkpt>
      <trkpt lat="43.97686" lon="5.34351">
        <ele>647.20001220703</ele>
        <time>2019-03-16T13:17:40Z</time>
      </trkpt>
      <trkpt lat="43.97679" lon="5.34346">
        <ele>645.40002441406</ele>
        <time>2019-03-16T13:17:56Z</time>
      </trkpt>
      <trkpt lat="43.97671" lon="5.34342">
        <ele>642.79998779297</ele>
        <time>2019-03-16T13:18:15Z</time>
      </trkpt>
      <trkpt lat="43.9766" lon="5.34338">
        <ele>640.59997558594</ele>
        <time>2019-03-16T13:18:39Z</time>
      </trkpt>
      <trkpt lat="43.97655" lon="5.34327">
        <ele>637.59997558594</ele>
        <time>2019-03-16T13:19:24Z</time>
      </trkpt>
      <trkpt lat="43.97648" lon="5.34323">
        <ele>634.59997558594</ele>
        <time>2019-03-16T13:19:41Z</time>
      </trkpt>
      <trkpt lat="43.97635" lon="5.3432">
        <ele>631.59997558594</ele>
        <time>2019-03-16T13:20:00Z</time>
      </trkpt>
      <trkpt lat="43.97635" lon="5.34319">
        <ele>631.40002441406</ele>
        <time>2019-03-16T13:20:01Z</time>
      </trkpt>
      <trkpt lat="43.97618" lon="5.34316">
        <ele>628.20001220703</ele>
        <time>2019-03-16T13:20:24Z</time>
      </trkpt>
      <trkpt lat="43.97603" lon="5.34312">
        <ele>625.59997558594</ele>
        <time>2019-03-16T13:20:47Z</time>
      </trkpt>
      <trkpt lat="43.97592" lon="5.34307">
        <ele>623</ele>
        <time>2019-03-16T13:21:07Z</time>
      </trkpt>
      <trkpt lat="43.97579" lon="5.34305">
        <ele>619.79998779297</ele>
        <time>2019-03-16T13:21:25Z</time>
      </trkpt>
      <trkpt lat="43.9757" lon="5.343">
        <ele>617.20001220703</ele>
        <time>2019-03-16T13:21:43Z</time>
      </trkpt>
      <trkpt lat="43.97563" lon="5.34295">
        <ele>614.79998779297</ele>
        <time>2019-03-16T13:22:00Z</time>
      </trkpt>
      <trkpt lat="43.97552" lon="5.34288">
        <ele>612.20001220703</ele>
        <time>2019-03-16T13:22:23Z</time>
      </trkpt>
      <trkpt lat="43.97544" lon="5.34283">
        <ele>612.40002441406</ele>
        <time>2019-03-16T13:22:43Z</time>
      </trkpt>
      <trkpt lat="43.97543" lon="5.34271">
        <ele>614</ele>
        <time>2019-03-16T13:23:16Z</time>
      </trkpt>
      <trkpt lat="43.97542" lon="5.34259">
        <ele>617.20001220703</ele>
        <time>2019-03-16T13:23:34Z</time>
      </trkpt>
      <trkpt lat="43.97544" lon="5.34247">
        <ele>620.20001220703</ele>
        <time>2019-03-16T13:23:53Z</time>
      </trkpt>
      <trkpt lat="43.97534" lon="5.34241">
        <ele>621.40002441406</ele>
        <time>2019-03-16T13:24:08Z</time>
      </trkpt>
      <trkpt lat="43.97524" lon="5.34242">
        <ele>619.40002441406</ele>
        <time>2019-03-16T13:24:26Z</time>
      </trkpt>
      <trkpt lat="43.9751" lon="5.34249">
        <ele>616.59997558594</ele>
        <time>2019-03-16T13:24:44Z</time>
      </trkpt>
      <trkpt lat="43.97497" lon="5.34249">
        <ele>614.40002441406</ele>
        <time>2019-03-16T13:25:00Z</time>
      </trkpt>
      <trkpt lat="43.97484" lon="5.3425">
        <ele>612.20001220703</ele>
        <time>2019-03-16T13:25:17Z</time>
      </trkpt>
      <trkpt lat="43.97469" lon="5.34245">
        <ele>609.40002441406</ele>
        <time>2019-03-16T13:25:35Z</time>
      </trkpt>
      <trkpt lat="43.97458" lon="5.34243">
        <ele>608.20001220703</ele>
        <time>2019-03-16T13:25:55Z</time>
      </trkpt>
      <trkpt lat="43.9744" lon="5.34231">
        <ele>605.79998779297</ele>
        <time>2019-03-16T13:26:14Z</time>
      </trkpt>
      <trkpt lat="43.97426" lon="5.34224">
        <ele>604.79998779297</ele>
        <time>2019-03-16T13:26:31Z</time>
      </trkpt>
      <trkpt lat="43.97415" lon="5.34216">
        <ele>602.40002441406</ele>
        <time>2019-03-16T13:26:52Z</time>
      </trkpt>
      <trkpt lat="43.97409" lon="5.34215">
        <ele>599.40002441406</ele>
        <time>2019-03-16T13:27:09Z</time>
      </trkpt>
      <trkpt lat="43.97404" lon="5.34217">
        <ele>597.59997558594</ele>
        <time>2019-03-16T13:27:22Z</time>
      </trkpt>
      <trkpt lat="43.97395" lon="5.34212">
        <ele>594.59997558594</ele>
        <time>2019-03-16T13:27:39Z</time>
      </trkpt>
      <trkpt lat="43.9739" lon="5.34204">
        <ele>592.79998779297</ele>
        <time>2019-03-16T13:27:56Z</time>
      </trkpt>
      <trkpt lat="43.97384" lon="5.34205">
        <ele>591.40002441406</ele>
        <time>2019-03-16T13:28:14Z</time>
      </trkpt>
      <trkpt lat="43.97377" lon="5.34208">
        <ele>589.59997558594</ele>
        <time>2019-03-16T13:28:52Z</time>
      </trkpt>
      <trkpt lat="43.97374" lon="5.3421">
        <ele>587.40002441406</ele>
        <time>2019-03-16T13:29:10Z</time>
      </trkpt>
      <trkpt lat="43.97374" lon="5.34211">
        <ele>587.59997558594</ele>
        <time>2019-03-16T13:29:34Z</time>
      </trkpt>
      <trkpt lat="43.97375" lon="5.34211">
        <ele>587.20001220703</ele>
        <time>2019-03-16T13:30:10Z</time>
      </trkpt>
      <trkpt lat="43.97376" lon="5.34214">
        <ele>587</ele>
        <time>2019-03-16T13:30:41Z</time>
      </trkpt>
      <trkpt lat="43.97374" lon="5.34211">
        <ele>586.79998779297</ele>
        <time>2019-03-16T13:31:20Z</time>
      </trkpt>
      <trkpt lat="43.97369" lon="5.34209">
        <ele>587.20001220703</ele>
        <time>2019-03-16T13:31:35Z</time>
      </trkpt>
      <trkpt lat="43.97364" lon="5.34202">
        <ele>585.59997558594</ele>
        <time>2019-03-16T13:31:50Z</time>
      </trkpt>
      <trkpt lat="43.97356" lon="5.342">
        <ele>585.20001220703</ele>
        <time>2019-03-16T13:32:12Z</time>
      </trkpt>
      <trkpt lat="43.97349" lon="5.34197">
        <ele>582.40002441406</ele>
        <time>2019-03-16T13:32:29Z</time>
      </trkpt>
      <trkpt lat="43.97342" lon="5.34201">
        <ele>580</ele>
        <time>2019-03-16T13:32:46Z</time>
      </trkpt>
      <trkpt lat="43.97349" lon="5.34197">
        <ele>579.79998779297</ele>
        <time>2019-03-16T13:33:06Z</time>
      </trkpt>
      <trkpt lat="43.97349" lon="5.3421">
        <ele>581.59997558594</ele>
        <time>2019-03-16T13:33:24Z</time>
      </trkpt>
      <trkpt lat="43.9735" lon="5.3421">
        <ele>580.79998779297</ele>
        <time>2019-03-16T13:33:52Z</time>
      </trkpt>
      <trkpt lat="43.97354" lon="5.34199">
        <ele>581.40002441406</ele>
        <time>2019-03-16T13:34:34Z</time>
      </trkpt>
      <trkpt lat="43.97361" lon="5.34193">
        <ele>583.40002441406</ele>
        <time>2019-03-16T13:34:50Z</time>
      </trkpt>
      <trkpt lat="43.97362" lon="5.34183">
        <ele>584.20001220703</ele>
        <time>2019-03-16T13:35:05Z</time>
      </trkpt>
      <trkpt lat="43.97353" lon="5.34171">
        <ele>583.79998779297</ele>
        <time>2019-03-16T13:35:22Z</time>
      </trkpt>
      <trkpt lat="43.97349" lon="5.34165">
        <ele>586.20001220703</ele>
        <time>2019-03-16T13:35:48Z</time>
      </trkpt>
      <trkpt lat="43.97349" lon="5.34167">
        <ele>585.79998779297</ele>
        <time>2019-03-16T13:36:19Z</time>
      </trkpt>
      <trkpt lat="43.97357" lon="5.34178">
        <ele>584</ele>
        <time>2019-03-16T13:36:38Z</time>
      </trkpt>
      <trkpt lat="43.97362" lon="5.34191">
        <ele>583</ele>
        <time>2019-03-16T13:37:09Z</time>
      </trkpt>
      <trkpt lat="43.97361" lon="5.34202">
        <ele>583.79998779297</ele>
        <time>2019-03-16T13:37:33Z</time>
      </trkpt>
      <trkpt lat="43.97368" lon="5.34207">
        <ele>585.20001220703</ele>
        <time>2019-03-16T13:37:51Z</time>
      </trkpt>
      <trkpt lat="43.97375" lon="5.34212">
        <ele>586.79998779297</ele>
        <time>2019-03-16T13:38:10Z</time>
      </trkpt>
      <trkpt lat="43.97376" lon="5.34215">
        <ele>587.20001220703</ele>
        <time>2019-03-16T13:38:52Z</time>
      </trkpt>
      <trkpt lat="43.97378" lon="5.34217">
        <ele>584.20001220703</ele>
        <time>2019-03-16T13:39:14Z</time>
      </trkpt>
      <trkpt lat="43.97381" lon="5.34221">
        <ele>581.79998779297</ele>
        <time>2019-03-16T13:39:38Z</time>
      </trkpt>
      <trkpt lat="43.97383" lon="5.34228">
        <ele>581.20001220703</ele>
        <time>2019-03-16T13:40:02Z</time>
      </trkpt>
      <trkpt lat="43.9738" lon="5.34234">
        <ele>578.20001220703</ele>
        <time>2019-03-16T13:40:25Z</time>
      </trkpt>
      <trkpt lat="43.97373" lon="5.34234">
        <ele>575.20001220703</ele>
        <time>2019-03-16T13:40:46Z</time>
      </trkpt>
      <trkpt lat="43.97367" lon="5.34227">
        <ele>572.79998779297</ele>
        <time>2019-03-16T13:41:14Z</time>
      </trkpt>
      <trkpt lat="43.97366" lon="5.34227">
        <ele>572.59997558594</ele>
        <time>2019-03-16T13:41:15Z</time>
      </trkpt>
      <trkpt lat="43.9736" lon="5.34229">
        <ele>569.40002441406</ele>
        <time>2019-03-16T13:41:34Z</time>
      </trkpt>
      <trkpt lat="43.97352" lon="5.34236">
        <ele>567.59997558594</ele>
        <time>2019-03-16T13:41:53Z</time>
      </trkpt>
      <trkpt lat="43.97352" lon="5.34226">
        <ele>565.40002441406</ele>
        <time>2019-03-16T13:42:24Z</time>
      </trkpt>
      <trkpt lat="43.97346" lon="5.34231">
        <ele>565.40002441406</ele>
        <time>2019-03-16T13:43:05Z</time>
      </trkpt>
      <trkpt lat="43.97341" lon="5.34234">
        <ele>562.40002441406</ele>
        <time>2019-03-16T13:43:23Z</time>
      </trkpt>
      <trkpt lat="43.97333" lon="5.34233">
        <ele>559.20001220703</ele>
        <time>2019-03-16T13:43:37Z</time>
      </trkpt>
      <trkpt lat="43.97327" lon="5.34233">
        <ele>556.20001220703</ele>
        <time>2019-03-16T13:43:54Z</time>
      </trkpt>
      <trkpt lat="43.97316" lon="5.34237">
        <ele>553</ele>
        <time>2019-03-16T13:44:15Z</time>
      </trkpt>
      <trkpt lat="43.97308" lon="5.34237">
        <ele>550</ele>
        <time>2019-03-16T13:44:31Z</time>
      </trkpt>
      <trkpt lat="43.97305" lon="5.34229">
        <ele>548</ele>
        <time>2019-03-16T13:44:53Z</time>
      </trkpt>
      <trkpt lat="43.97309" lon="5.34216">
        <ele>548.40002441406</ele>
        <time>2019-03-16T13:45:16Z</time>
      </trkpt>
      <trkpt lat="43.9732" lon="5.34201">
        <ele>549</ele>
        <time>2019-03-16T13:45:45Z</time>
      </trkpt>
      <trkpt lat="43.97315" lon="5.34205">
        <ele>548.40002441406</ele>
        <time>2019-03-16T13:46:22Z</time>
      </trkpt>
      <trkpt lat="43.97319" lon="5.342">
        <ele>549</ele>
        <time>2019-03-16T13:46:47Z</time>
      </trkpt>
      <trkpt lat="43.97317" lon="5.34217">
        <ele>549.20001220703</ele>
        <time>2019-03-16T13:47:15Z</time>
      </trkpt>
      <trkpt lat="43.97316" lon="5.34215">
        <ele>549</ele>
        <time>2019-03-16T13:47:38Z</time>
      </trkpt>
      <trkpt lat="43.97309" lon="5.34223">
        <ele>549.40002441406</ele>
        <time>2019-03-16T13:48:01Z</time>
      </trkpt>
      <trkpt lat="43.9731" lon="5.34219">
        <ele>549.40002441406</ele>
        <time>2019-03-16T13:48:45Z</time>
      </trkpt>
      <trkpt lat="43.9731" lon="5.34218">
        <ele>547.79998779297</ele>
        <time>2019-03-16T13:49:20Z</time>
      </trkpt>
      <trkpt lat="43.97316" lon="5.34218">
        <ele>547.20001220703</ele>
        <time>2019-03-16T13:50:21Z</time>
      </trkpt>
      <trkpt lat="43.97315" lon="5.34215">
        <ele>547.20001220703</ele>
        <time>2019-03-16T13:50:43Z</time>
      </trkpt>
      <trkpt lat="43.97303" lon="5.34224">
        <ele>548.59997558594</ele>
        <time>2019-03-16T13:51:28Z</time>
      </trkpt>
      <trkpt lat="43.97314" lon="5.34213">
        <ele>549.20001220703</ele>
        <time>2019-03-16T13:52:04Z</time>
      </trkpt>
      <trkpt lat="43.97313" lon="5.34206">
        <ele>549.40002441406</ele>
        <time>2019-03-16T13:52:39Z</time>
      </trkpt>
      <trkpt lat="43.97314" lon="5.34202">
        <ele>549</ele>
        <time>2019-03-16T13:53:30Z</time>
      </trkpt>
      <trkpt lat="43.97309" lon="5.34207">
        <ele>548.79998779297</ele>
        <time>2019-03-16T13:53:34Z</time>
      </trkpt>
      <trkpt lat="43.97302" lon="5.34199">
        <ele>547.59997558594</ele>
        <time>2019-03-16T13:54:05Z</time>
      </trkpt>
      <trkpt lat="43.97294" lon="5.34194">
        <ele>546.40002441406</ele>
        <time>2019-03-16T13:54:26Z</time>
      </trkpt>
      <trkpt lat="43.97285" lon="5.34196">
        <ele>544.40002441406</ele>
        <time>2019-03-16T13:54:53Z</time>
      </trkpt>
      <trkpt lat="43.97286" lon="5.34206">
        <ele>541.40002441406</ele>
        <time>2019-03-16T13:55:05Z</time>
      </trkpt>
      <trkpt lat="43.97285" lon="5.34207">
        <ele>540.79998779297</ele>
        <time>2019-03-16T13:55:07Z</time>
      </trkpt>
      <trkpt lat="43.97278" lon="5.34214">
        <ele>537.79998779297</ele>
        <time>2019-03-16T13:55:48Z</time>
      </trkpt>
      <trkpt lat="43.97274" lon="5.34212">
        <ele>536.79998779297</ele>
        <time>2019-03-16T13:56:44Z</time>
      </trkpt>
      <trkpt lat="43.97272" lon="5.3421">
        <ele>535.59997558594</ele>
        <time>2019-03-16T13:56:52Z</time>
      </trkpt>
      <trkpt lat="43.97266" lon="5.34216">
        <ele>532.20001220703</ele>
        <time>2019-03-16T13:57:13Z</time>
      </trkpt>
      <trkpt lat="43.97265" lon="5.34226">
        <ele>529</ele>
        <time>2019-03-16T13:57:23Z</time>
      </trkpt>
      <trkpt lat="43.97259" lon="5.34241">
        <ele>526</ele>
        <time>2019-03-16T13:57:41Z</time>
      </trkpt>
      <trkpt lat="43.97255" lon="5.34252">
        <ele>522.59997558594</ele>
        <time>2019-03-16T13:57:53Z</time>
      </trkpt>
      <trkpt lat="43.97245" lon="5.34259">
        <ele>520</ele>
        <time>2019-03-16T13:58:18Z</time>
      </trkpt>
      <trkpt lat="43.97244" lon="5.34262">
        <ele>519.20001220703</ele>
        <time>2019-03-16T13:59:05Z</time>
      </trkpt>
      <trkpt lat="43.97234" lon="5.34274">
        <ele>516.79998779297</ele>
        <time>2019-03-16T13:59:29Z</time>
      </trkpt>
      <trkpt lat="43.97235" lon="5.34289">
        <ele>513.79998779297</ele>
        <time>2019-03-16T13:59:46Z</time>
      </trkpt>
      <trkpt lat="43.97234" lon="5.34302">
        <ele>511.60000610352</ele>
        <time>2019-03-16T14:00:01Z</time>
      </trkpt>
      <trkpt lat="43.9723" lon="5.34315">
        <ele>509.60000610352</ele>
        <time>2019-03-16T14:00:15Z</time>
      </trkpt>
      <trkpt lat="43.97226" lon="5.34327">
        <ele>507.39999389648</ele>
        <time>2019-03-16T14:00:34Z</time>
      </trkpt>
      <trkpt lat="43.97226" lon="5.34345">
        <ele>506.20001220703</ele>
        <time>2019-03-16T14:00:51Z</time>
      </trkpt>
      <trkpt lat="43.97227" lon="5.34359">
        <ele>504.60000610352</ele>
        <time>2019-03-16T14:01:10Z</time>
      </trkpt>
      <trkpt lat="43.97228" lon="5.34367">
        <ele>503</ele>
        <time>2019-03-16T14:01:26Z</time>
      </trkpt>
      <trkpt lat="43.97224" lon="5.34375">
        <ele>500.79998779297</ele>
        <time>2019-03-16T14:01:43Z</time>
      </trkpt>
      <trkpt lat="43.97224" lon="5.34387">
        <ele>497.79998779297</ele>
        <time>2019-03-16T14:01:57Z</time>
      </trkpt>
      <trkpt lat="43.97231" lon="5.34398">
        <ele>494.60000610352</ele>
        <time>2019-03-16T14:02:14Z</time>
      </trkpt>
      <trkpt lat="43.97241" lon="5.3441">
        <ele>491.60000610352</ele>
        <time>2019-03-16T14:02:35Z</time>
      </trkpt>
      <trkpt lat="43.97255" lon="5.34422">
        <ele>488.79998779297</ele>
        <time>2019-03-16T14:02:56Z</time>
      </trkpt>
      <trkpt lat="43.97262" lon="5.34428">
        <ele>487.39999389648</ele>
        <time>2019-03-16T14:03:08Z</time>
      </trkpt>
      <trkpt lat="43.97266" lon="5.34436">
        <ele>486</ele>
        <time>2019-03-16T14:03:17Z</time>
      </trkpt>
      <trkpt lat="43.97273" lon="5.34434">
        <ele>484.20001220703</ele>
        <time>2019-03-16T14:03:28Z</time>
      </trkpt>
      <trkpt lat="43.97282" lon="5.34436">
        <ele>482.79998779297</ele>
        <time>2019-03-16T14:03:36Z</time>
      </trkpt>
      <trkpt lat="43.97282" lon="5.34442">
        <ele>481.60000610352</ele>
        <time>2019-03-16T14:04:05Z</time>
      </trkpt>
      <trkpt lat="43.97271" lon="5.34456">
        <ele>480</ele>
        <time>2019-03-16T14:04:30Z</time>
      </trkpt>
      <trkpt lat="43.97286" lon="5.34448">
        <ele>481</ele>
        <time>2019-03-16T14:04:54Z</time>
      </trkpt>
      <trkpt lat="43.97311" lon="5.34451">
        <ele>482.60000610352</ele>
        <time>2019-03-16T14:05:21Z</time>
      </trkpt>
      <trkpt lat="43.97319" lon="5.34458">
        <ele>483.39999389648</ele>
        <time>2019-03-16T14:05:34Z</time>
      </trkpt>
      <trkpt lat="43.97323" lon="5.34479">
        <ele>486</ele>
        <time>2019-03-16T14:06:01Z</time>
      </trkpt>
      <trkpt lat="43.97304" lon="5.34494">
        <ele>488.79998779297</ele>
        <time>2019-03-16T14:06:25Z</time>
      </trkpt>
      <trkpt lat="43.97285" lon="5.34506">
        <ele>491.60000610352</ele>
        <time>2019-03-16T14:06:53Z</time>
      </trkpt>
      <trkpt lat="43.97282" lon="5.34507">
        <ele>492.79998779297</ele>
        <time>2019-03-16T14:06:58Z</time>
      </trkpt>
      <trkpt lat="43.97261" lon="5.34507">
        <ele>494.39999389648</ele>
        <time>2019-03-16T14:07:21Z</time>
      </trkpt>
      <trkpt lat="43.97248" lon="5.34509">
        <ele>497.60000610352</ele>
        <time>2019-03-16T14:07:41Z</time>
      </trkpt>
      <trkpt lat="43.97237" lon="5.34504">
        <ele>500.60000610352</ele>
        <time>2019-03-16T14:08:08Z</time>
      </trkpt>
      <trkpt lat="43.9723" lon="5.34503">
        <ele>503.79998779297</ele>
        <time>2019-03-16T14:08:25Z</time>
      </trkpt>
      <trkpt lat="43.97224" lon="5.3451">
        <ele>506.79998779297</ele>
        <time>2019-03-16T14:08:45Z</time>
      </trkpt>
      <trkpt lat="43.97227" lon="5.34519">
        <ele>509.20001220703</ele>
        <time>2019-03-16T14:09:07Z</time>
      </trkpt>
      <trkpt lat="43.97215" lon="5.34523">
        <ele>512.20001220703</ele>
        <time>2019-03-16T14:09:24Z</time>
      </trkpt>
      <trkpt lat="43.97205" lon="5.34522">
        <ele>514.79998779297</ele>
        <time>2019-03-16T14:09:48Z</time>
      </trkpt>
      <trkpt lat="43.97192" lon="5.34516">
        <ele>516</ele>
        <time>2019-03-16T14:10:07Z</time>
      </trkpt>
      <trkpt lat="43.9718" lon="5.34514">
        <ele>518.40002441406</ele>
        <time>2019-03-16T14:10:25Z</time>
      </trkpt>
      <trkpt lat="43.97168" lon="5.34513">
        <ele>521.59997558594</ele>
        <time>2019-03-16T14:10:43Z</time>
      </trkpt>
      <trkpt lat="43.97156" lon="5.34503">
        <ele>522.40002441406</ele>
        <time>2019-03-16T14:11:02Z</time>
      </trkpt>
      <trkpt lat="43.97143" lon="5.34485">
        <ele>525.79998779297</ele>
        <time>2019-03-16T14:11:21Z</time>
      </trkpt>
      <trkpt lat="43.97136" lon="5.34478">
        <ele>528.79998779297</ele>
        <time>2019-03-16T14:11:36Z</time>
      </trkpt>
      <trkpt lat="43.97136" lon="5.34476">
        <ele>531</ele>
        <time>2019-03-16T14:12:18Z</time>
      </trkpt>
      <trkpt lat="43.97136" lon="5.34474">
        <ele>530.79998779297</ele>
        <time>2019-03-16T14:13:13Z</time>
      </trkpt>
      <trkpt lat="43.97126" lon="5.3447">
        <ele>531.40002441406</ele>
        <time>2019-03-16T14:13:52Z</time>
      </trkpt>
      <trkpt lat="43.97121" lon="5.34471">
        <ele>534</ele>
        <time>2019-03-16T14:14:21Z</time>
      </trkpt>
      <trkpt lat="43.97119" lon="5.34477">
        <ele>535.20001220703</ele>
        <time>2019-03-16T14:14:51Z</time>
      </trkpt>
      <trkpt lat="43.9712" lon="5.34477">
        <ele>506.39999389648</ele>
        <time>2019-03-16T14:14:53Z</time>
      </trkpt>
      <trkpt lat="43.9712" lon="5.34477">
        <ele>506.39999389648</ele>
        <time>2019-03-16T14:14:54Z</time>
      </trkpt>
      <trkpt lat="43.97105" lon="5.34475">
        <ele>507.60000610352</ele>
        <time>2019-03-16T14:15:18Z</time>
      </trkpt>
      <trkpt lat="43.97093" lon="5.34484">
        <ele>509.60000610352</ele>
        <time>2019-03-16T14:15:38Z</time>
      </trkpt>
      <trkpt lat="43.97087" lon="5.34498">
        <ele>511.60000610352</ele>
        <time>2019-03-16T14:15:56Z</time>
      </trkpt>
      <trkpt lat="43.97079" lon="5.34507">
        <ele>513.59997558594</ele>
        <time>2019-03-16T14:16:21Z</time>
      </trkpt>
      <trkpt lat="43.97082" lon="5.34521">
        <ele>513.59997558594</ele>
        <time>2019-03-16T14:16:50Z</time>
      </trkpt>
      <trkpt lat="43.97093" lon="5.34547">
        <ele>516.59997558594</ele>
        <time>2019-03-16T14:17:14Z</time>
      </trkpt>
      <trkpt lat="43.97102" lon="5.34569">
        <ele>518.59997558594</ele>
        <time>2019-03-16T14:17:34Z</time>
      </trkpt>
      <trkpt lat="43.97102" lon="5.34579">
        <ele>520</ele>
        <time>2019-03-16T14:17:49Z</time>
      </trkpt>
      <trkpt lat="43.97089" lon="5.34571">
        <ele>521.40002441406</ele>
        <time>2019-03-16T14:18:08Z</time>
      </trkpt>
      <trkpt lat="43.97082" lon="5.34565">
        <ele>522.59997558594</ele>
        <time>2019-03-16T14:18:33Z</time>
      </trkpt>
      <trkpt lat="43.97072" lon="5.34559">
        <ele>522.59997558594</ele>
        <time>2019-03-16T14:18:46Z</time>
      </trkpt>
      <trkpt lat="43.97059" lon="5.34551">
        <ele>523.20001220703</ele>
        <time>2019-03-16T14:19:01Z</time>
      </trkpt>
      <trkpt lat="43.97064" lon="5.34571">
        <ele>525.20001220703</ele>
        <time>2019-03-16T14:19:22Z</time>
      </trkpt>
      <trkpt lat="43.97072" lon="5.34587">
        <ele>527.20001220703</ele>
        <time>2019-03-16T14:19:37Z</time>
      </trkpt>
      <trkpt lat="43.97082" lon="5.34605">
        <ele>529.20001220703</ele>
        <time>2019-03-16T14:19:55Z</time>
      </trkpt>
      <trkpt lat="43.97093" lon="5.34624">
        <ele>530</ele>
        <time>2019-03-16T14:20:12Z</time>
      </trkpt>
      <trkpt lat="43.97099" lon="5.34635">
        <ele>531.20001220703</ele>
        <time>2019-03-16T14:20:24Z</time>
      </trkpt>
      <trkpt lat="43.97109" lon="5.34654">
        <ele>533</ele>
        <time>2019-03-16T14:20:40Z</time>
      </trkpt>
      <trkpt lat="43.97123" lon="5.34673">
        <ele>534.79998779297</ele>
        <time>2019-03-16T14:20:59Z</time>
      </trkpt>
      <trkpt lat="43.97133" lon="5.34689">
        <ele>536.59997558594</ele>
        <time>2019-03-16T14:21:15Z</time>
      </trkpt>
      <trkpt lat="43.97139" lon="5.34707">
        <ele>537.40002441406</ele>
        <time>2019-03-16T14:21:30Z</time>
      </trkpt>
      <trkpt lat="43.97143" lon="5.34725">
        <ele>539</ele>
        <time>2019-03-16T14:21:45Z</time>
      </trkpt>
      <trkpt lat="43.97148" lon="5.34744">
        <ele>540.40002441406</ele>
        <time>2019-03-16T14:22:00Z</time>
      </trkpt>
      <trkpt lat="43.97155" lon="5.34759">
        <ele>541</ele>
        <time>2019-03-16T14:22:13Z</time>
      </trkpt>
      <trkpt lat="43.97166" lon="5.34779">
        <ele>542</ele>
        <time>2019-03-16T14:22:29Z</time>
      </trkpt>
      <trkpt lat="43.97171" lon="5.34792">
        <ele>542.59997558594</ele>
        <time>2019-03-16T14:22:40Z</time>
      </trkpt>
      <trkpt lat="43.97175" lon="5.348">
        <ele>542.59997558594</ele>
        <time>2019-03-16T14:22:46Z</time>
      </trkpt>
      <trkpt lat="43.9718" lon="5.34807">
        <ele>543.20001220703</ele>
        <time>2019-03-16T14:22:53Z</time>
      </trkpt>
      <trkpt lat="43.97187" lon="5.34826">
        <ele>544.20001220703</ele>
        <time>2019-03-16T14:23:10Z</time>
      </trkpt>
      <trkpt lat="43.97191" lon="5.34836">
        <ele>545</ele>
        <time>2019-03-16T14:23:37Z</time>
      </trkpt>
      <trkpt lat="43.972" lon="5.34851">
        <ele>545.59997558594</ele>
        <time>2019-03-16T14:23:57Z</time>
      </trkpt>
      <trkpt lat="43.97205" lon="5.34863">
        <ele>546</ele>
        <time>2019-03-16T14:24:09Z</time>
      </trkpt>
      <trkpt lat="43.97211" lon="5.34879">
        <ele>546.79998779297</ele>
        <time>2019-03-16T14:24:22Z</time>
      </trkpt>
      <trkpt lat="43.97215" lon="5.34892">
        <ele>547.20001220703</ele>
        <time>2019-03-16T14:24:30Z</time>
      </trkpt>
      <trkpt lat="43.97219" lon="5.34909">
        <ele>549</ele>
        <time>2019-03-16T14:24:44Z</time>
      </trkpt>
      <trkpt lat="43.97221" lon="5.34913">
        <ele>549.20001220703</ele>
        <time>2019-03-16T14:24:47Z</time>
      </trkpt>
      <trkpt lat="43.97228" lon="5.34933">
        <ele>550</ele>
        <time>2019-03-16T14:25:04Z</time>
      </trkpt>
      <trkpt lat="43.97234" lon="5.34946">
        <ele>551</ele>
        <time>2019-03-16T14:25:15Z</time>
      </trkpt>
      <trkpt lat="43.97236" lon="5.3495">
        <ele>551.20001220703</ele>
        <time>2019-03-16T14:25:18Z</time>
      </trkpt>
      <trkpt lat="43.97232" lon="5.34974">
        <ele>552.20001220703</ele>
        <time>2019-03-16T14:25:34Z</time>
      </trkpt>
      <trkpt lat="43.97231" lon="5.3498">
        <ele>552.40002441406</ele>
        <time>2019-03-16T14:25:38Z</time>
      </trkpt>
      <trkpt lat="43.97224" lon="5.35003">
        <ele>553.20001220703</ele>
        <time>2019-03-16T14:25:56Z</time>
      </trkpt>
      <trkpt lat="43.97226" lon="5.35025">
        <ele>554</ele>
        <time>2019-03-16T14:26:15Z</time>
      </trkpt>
      <trkpt lat="43.97223" lon="5.35026">
        <ele>554.40002441406</ele>
        <time>2019-03-16T14:26:35Z</time>
      </trkpt>
      <trkpt lat="43.97225" lon="5.35025">
        <ele>554.40002441406</ele>
        <time>2019-03-16T14:26:38Z</time>
      </trkpt>
      <trkpt lat="43.9723" lon="5.35045">
        <ele>555.40002441406</ele>
        <time>2019-03-16T14:26:56Z</time>
      </trkpt>
      <trkpt lat="43.9723" lon="5.35064">
        <ele>555.59997558594</ele>
        <time>2019-03-16T14:27:08Z</time>
      </trkpt>
      <trkpt lat="43.97221" lon="5.35084">
        <ele>555.79998779297</ele>
        <time>2019-03-16T14:27:26Z</time>
      </trkpt>
      <trkpt lat="43.97212" lon="5.35086">
        <ele>554.20001220703</ele>
        <time>2019-03-16T14:27:43Z</time>
      </trkpt>
      <trkpt lat="43.97207" lon="5.35085">
        <ele>554.40002441406</ele>
        <time>2019-03-16T14:28:11Z</time>
      </trkpt>
      <trkpt lat="43.97195" lon="5.35083">
        <ele>553</ele>
        <time>2019-03-16T14:28:43Z</time>
      </trkpt>
      <trkpt lat="43.97185" lon="5.35081">
        <ele>551.40002441406</ele>
        <time>2019-03-16T14:29:00Z</time>
      </trkpt>
      <trkpt lat="43.97183" lon="5.35077">
        <ele>551.20001220703</ele>
        <time>2019-03-16T14:29:29Z</time>
      </trkpt>
      <trkpt lat="43.97187" lon="5.35077">
        <ele>551.20001220703</ele>
        <time>2019-03-16T14:30:00Z</time>
      </trkpt>
      <trkpt lat="43.97188" lon="5.3509">
        <ele>551.40002441406</ele>
        <time>2019-03-16T14:30:33Z</time>
      </trkpt>
      <trkpt lat="43.97182" lon="5.35112">
        <ele>551.20001220703</ele>
        <time>2019-03-16T14:30:49Z</time>
      </trkpt>
      <trkpt lat="43.97175" lon="5.3513">
        <ele>551</ele>
        <time>2019-03-16T14:31:05Z</time>
      </trkpt>
      <trkpt lat="43.97158" lon="5.35145">
        <ele>550.20001220703</ele>
        <time>2019-03-16T14:31:22Z</time>
      </trkpt>
      <trkpt lat="43.97155" lon="5.35143">
        <ele>549.79998779297</ele>
        <time>2019-03-16T14:31:25Z</time>
      </trkpt>
      <trkpt lat="43.97145" lon="5.35117">
        <ele>547</ele>
        <time>2019-03-16T14:31:42Z</time>
      </trkpt>
      <trkpt lat="43.9714" lon="5.35097">
        <ele>545.79998779297</ele>
        <time>2019-03-16T14:31:57Z</time>
      </trkpt>
      <trkpt lat="43.97139" lon="5.35094">
        <ele>545.59997558594</ele>
        <time>2019-03-16T14:32:00Z</time>
      </trkpt>
      <trkpt lat="43.97132" lon="5.35086">
        <ele>544.79998779297</ele>
        <time>2019-03-16T14:32:08Z</time>
      </trkpt>
      <trkpt lat="43.97128" lon="5.3509">
        <ele>544.20001220703</ele>
        <time>2019-03-16T14:32:13Z</time>
      </trkpt>
      <trkpt lat="43.97128" lon="5.3512">
        <ele>542.40002441406</ele>
        <time>2019-03-16T14:32:31Z</time>
      </trkpt>
      <trkpt lat="43.97131" lon="5.35146">
        <ele>541.79998779297</ele>
        <time>2019-03-16T14:32:47Z</time>
      </trkpt>
      <trkpt lat="43.97129" lon="5.35169">
        <ele>541</ele>
        <time>2019-03-16T14:33:01Z</time>
      </trkpt>
      <trkpt lat="43.97123" lon="5.35192">
        <ele>540</ele>
        <time>2019-03-16T14:33:18Z</time>
      </trkpt>
      <trkpt lat="43.9712" lon="5.35199">
        <ele>539.59997558594</ele>
        <time>2019-03-16T14:33:23Z</time>
      </trkpt>
      <trkpt lat="43.97102" lon="5.3523">
        <ele>537.59997558594</ele>
        <time>2019-03-16T14:33:48Z</time>
      </trkpt>
      <trkpt lat="43.97094" lon="5.35243">
        <ele>535.40002441406</ele>
        <time>2019-03-16T14:34:07Z</time>
      </trkpt>
      <trkpt lat="43.9708" lon="5.35246">
        <ele>532.40002441406</ele>
        <time>2019-03-16T14:34:22Z</time>
      </trkpt>
      <trkpt lat="43.9707" lon="5.35249">
        <ele>531.40002441406</ele>
        <time>2019-03-16T14:34:39Z</time>
      </trkpt>
      <trkpt lat="43.97059" lon="5.35248">
        <ele>532.20001220703</ele>
        <time>2019-03-16T14:34:55Z</time>
      </trkpt>
      <trkpt lat="43.97056" lon="5.35249">
        <ele>532.79998779297</ele>
        <time>2019-03-16T14:35:01Z</time>
      </trkpt>
      <trkpt lat="43.97054" lon="5.3524">
        <ele>533.20001220703</ele>
        <time>2019-03-16T14:35:06Z</time>
      </trkpt>
      <trkpt lat="43.9705" lon="5.35213">
        <ele>533.40002441406</ele>
        <time>2019-03-16T14:35:23Z</time>
      </trkpt>
      <trkpt lat="43.97052" lon="5.35194">
        <ele>534.59997558594</ele>
        <time>2019-03-16T14:35:37Z</time>
      </trkpt>
      <trkpt lat="43.97053" lon="5.35168">
        <ele>535.20001220703</ele>
        <time>2019-03-16T14:35:56Z</time>
      </trkpt>
      <trkpt lat="43.97048" lon="5.35147">
        <ele>535.20001220703</ele>
        <time>2019-03-16T14:36:12Z</time>
      </trkpt>
      <trkpt lat="43.97048" lon="5.35142">
        <ele>536.59997558594</ele>
        <time>2019-03-16T14:36:37Z</time>
      </trkpt>
      <trkpt lat="43.97046" lon="5.3514">
        <ele>537</ele>
        <time>2019-03-16T14:36:39Z</time>
      </trkpt>
      <trkpt lat="43.97034" lon="5.3512">
        <ele>539</ele>
        <time>2019-03-16T14:36:57Z</time>
      </trkpt>
      <trkpt lat="43.97024" lon="5.35098">
        <ele>540.40002441406</ele>
        <time>2019-03-16T14:37:15Z</time>
      </trkpt>
      <trkpt lat="43.97021" lon="5.35089">
        <ele>540.79998779297</ele>
        <time>2019-03-16T14:37:24Z</time>
      </trkpt>
      <trkpt lat="43.9702" lon="5.35082">
        <ele>540.79998779297</ele>
        <time>2019-03-16T14:37:29Z</time>
      </trkpt>
      <trkpt lat="43.9702" lon="5.35075">
        <ele>540.40002441406</ele>
        <time>2019-03-16T14:37:49Z</time>
      </trkpt>
      <trkpt lat="43.97018" lon="5.35059">
        <ele>539.59997558594</ele>
        <time>2019-03-16T14:38:06Z</time>
      </trkpt>
      <trkpt lat="43.97018" lon="5.35037">
        <ele>538.79998779297</ele>
        <time>2019-03-16T14:38:27Z</time>
      </trkpt>
      <trkpt lat="43.97018" lon="5.35028">
        <ele>539</ele>
        <time>2019-03-16T14:38:43Z</time>
      </trkpt>
      <trkpt lat="43.97016" lon="5.35013">
        <ele>538.59997558594</ele>
        <time>2019-03-16T14:39:06Z</time>
      </trkpt>
      <trkpt lat="43.97012" lon="5.34988">
        <ele>537.79998779297</ele>
        <time>2019-03-16T14:39:26Z</time>
      </trkpt>
      <trkpt lat="43.97009" lon="5.3497">
        <ele>536.79998779297</ele>
        <time>2019-03-16T14:39:43Z</time>
      </trkpt>
      <trkpt lat="43.97002" lon="5.34948">
        <ele>536.40002441406</ele>
        <time>2019-03-16T14:40:00Z</time>
      </trkpt>
      <trkpt lat="43.96989" lon="5.34923">
        <ele>534.79998779297</ele>
        <time>2019-03-16T14:40:19Z</time>
      </trkpt>
      <trkpt lat="43.96979" lon="5.34902">
        <ele>534.20001220703</ele>
        <time>2019-03-16T14:40:38Z</time>
      </trkpt>
      <trkpt lat="43.96975" lon="5.34896">
        <ele>534.20001220703</ele>
        <time>2019-03-16T14:40:43Z</time>
      </trkpt>
      <trkpt lat="43.96963" lon="5.34868">
        <ele>534.20001220703</ele>
        <time>2019-03-16T14:41:07Z</time>
      </trkpt>
      <trkpt lat="43.96958" lon="5.34847">
        <ele>533.79998779297</ele>
        <time>2019-03-16T14:41:20Z</time>
      </trkpt>
      <trkpt lat="43.9695" lon="5.34818">
        <ele>532.79998779297</ele>
        <time>2019-03-16T14:41:39Z</time>
      </trkpt>
      <trkpt lat="43.96941" lon="5.34798">
        <ele>532</ele>
        <time>2019-03-16T14:41:53Z</time>
      </trkpt>
      <trkpt lat="43.96927" lon="5.34772">
        <ele>531</ele>
        <time>2019-03-16T14:42:13Z</time>
      </trkpt>
      <trkpt lat="43.96919" lon="5.3475">
        <ele>530.40002441406</ele>
        <time>2019-03-16T14:42:28Z</time>
      </trkpt>
      <trkpt lat="43.96914" lon="5.34716">
        <ele>528.79998779297</ele>
        <time>2019-03-16T14:42:49Z</time>
      </trkpt>
      <trkpt lat="43.96902" lon="5.34692">
        <ele>526.79998779297</ele>
        <time>2019-03-16T14:43:07Z</time>
      </trkpt>
      <trkpt lat="43.96889" lon="5.34669">
        <ele>525.79998779297</ele>
        <time>2019-03-16T14:43:25Z</time>
      </trkpt>
      <trkpt lat="43.96876" lon="5.34641">
        <ele>524.79998779297</ele>
        <time>2019-03-16T14:43:45Z</time>
      </trkpt>
      <trkpt lat="43.96869" lon="5.34629">
        <ele>523.20001220703</ele>
        <time>2019-03-16T14:43:55Z</time>
      </trkpt>
      <trkpt lat="43.96852" lon="5.34602">
        <ele>520</ele>
        <time>2019-03-16T14:44:17Z</time>
      </trkpt>
      <trkpt lat="43.96836" lon="5.34578">
        <ele>518.79998779297</ele>
        <time>2019-03-16T14:44:36Z</time>
      </trkpt>
      <trkpt lat="43.96826" lon="5.34548">
        <ele>517.79998779297</ele>
        <time>2019-03-16T14:44:57Z</time>
      </trkpt>
      <trkpt lat="43.96822" lon="5.34521">
        <ele>517.20001220703</ele>
        <time>2019-03-16T14:45:15Z</time>
      </trkpt>
      <trkpt lat="43.9682" lon="5.34495">
        <ele>516.59997558594</ele>
        <time>2019-03-16T14:45:32Z</time>
      </trkpt>
      <trkpt lat="43.96814" lon="5.34466">
        <ele>516.40002441406</ele>
        <time>2019-03-16T14:45:52Z</time>
      </trkpt>
      <trkpt lat="43.96802" lon="5.34448">
        <ele>516.20001220703</ele>
        <time>2019-03-16T14:46:08Z</time>
      </trkpt>
      <trkpt lat="43.96789" lon="5.34433">
        <ele>517</ele>
        <time>2019-03-16T14:46:23Z</time>
      </trkpt>
      <trkpt lat="43.96776" lon="5.34417">
        <ele>517.59997558594</ele>
        <time>2019-03-16T14:46:40Z</time>
      </trkpt>
      <trkpt lat="43.96758" lon="5.34398">
        <ele>518.20001220703</ele>
        <time>2019-03-16T14:47:02Z</time>
      </trkpt>
      <trkpt lat="43.96745" lon="5.34377">
        <ele>517.59997558594</ele>
        <time>2019-03-16T14:47:18Z</time>
      </trkpt>
      <trkpt lat="43.9673" lon="5.34358">
        <ele>517.20001220703</ele>
        <time>2019-03-16T14:47:35Z</time>
      </trkpt>
      <trkpt lat="43.96715" lon="5.3434">
        <ele>518.20001220703</ele>
        <time>2019-03-16T14:47:53Z</time>
      </trkpt>
      <trkpt lat="43.967" lon="5.3432">
        <ele>518.40002441406</ele>
        <time>2019-03-16T14:48:11Z</time>
      </trkpt>
      <trkpt lat="43.96695" lon="5.34314">
        <ele>518.59997558594</ele>
        <time>2019-03-16T14:48:31Z</time>
      </trkpt>
      <trkpt lat="43.96679" lon="5.34293">
        <ele>518</ele>
        <time>2019-03-16T14:48:51Z</time>
      </trkpt>
      <trkpt lat="43.96665" lon="5.34275">
        <ele>517.20001220703</ele>
        <time>2019-03-16T14:49:07Z</time>
      </trkpt>
      <trkpt lat="43.96656" lon="5.34257">
        <ele>517.20001220703</ele>
        <time>2019-03-16T14:49:21Z</time>
      </trkpt>
      <trkpt lat="43.96646" lon="5.34242">
        <ele>517</ele>
        <time>2019-03-16T14:49:37Z</time>
      </trkpt>
      <trkpt lat="43.96638" lon="5.34228">
        <ele>517</ele>
        <time>2019-03-16T14:49:51Z</time>
      </trkpt>
      <trkpt lat="43.96634" lon="5.3422">
        <ele>516.79998779297</ele>
        <time>2019-03-16T14:50:07Z</time>
      </trkpt>
      <trkpt lat="43.96619" lon="5.34201">
        <ele>516.59997558594</ele>
        <time>2019-03-16T14:50:28Z</time>
      </trkpt>
      <trkpt lat="43.96615" lon="5.34197">
        <ele>516.59997558594</ele>
        <time>2019-03-16T14:50:32Z</time>
      </trkpt>
      <trkpt lat="43.96602" lon="5.34184">
        <ele>515.59997558594</ele>
        <time>2019-03-16T14:50:47Z</time>
      </trkpt>
      <trkpt lat="43.96599" lon="5.3418">
        <ele>515.20001220703</ele>
        <time>2019-03-16T14:50:51Z</time>
      </trkpt>
      <trkpt lat="43.96586" lon="5.34164">
        <ele>513</ele>
        <time>2019-03-16T14:51:04Z</time>
      </trkpt>
      <trkpt lat="43.96575" lon="5.34146">
        <ele>511.39999389648</ele>
        <time>2019-03-16T14:51:17Z</time>
      </trkpt>
      <trkpt lat="43.96568" lon="5.34132">
        <ele>510.39999389648</ele>
        <time>2019-03-16T14:51:29Z</time>
      </trkpt>
      <trkpt lat="43.96559" lon="5.34111">
        <ele>508.60000610352</ele>
        <time>2019-03-16T14:51:43Z</time>
      </trkpt>
      <trkpt lat="43.96548" lon="5.34091">
        <ele>506.79998779297</ele>
        <time>2019-03-16T14:51:57Z</time>
      </trkpt>
      <trkpt lat="43.9654" lon="5.34068">
        <ele>506</ele>
        <time>2019-03-16T14:52:13Z</time>
      </trkpt>
      <trkpt lat="43.96533" lon="5.34049">
        <ele>504</ele>
        <time>2019-03-16T14:52:29Z</time>
      </trkpt>
      <trkpt lat="43.9652" lon="5.34025">
        <ele>501</ele>
        <time>2019-03-16T14:52:48Z</time>
      </trkpt>
      <trkpt lat="43.96518" lon="5.34021">
        <ele>500.39999389648</ele>
        <time>2019-03-16T14:52:51Z</time>
      </trkpt>
      <trkpt lat="43.96509" lon="5.33996">
        <ele>497.60000610352</ele>
        <time>2019-03-16T14:53:08Z</time>
      </trkpt>
      <trkpt lat="43.96495" lon="5.33971">
        <ele>494.60000610352</ele>
        <time>2019-03-16T14:53:26Z</time>
      </trkpt>
      <trkpt lat="43.96492" lon="5.33964">
        <ele>493</ele>
        <time>2019-03-16T14:53:32Z</time>
      </trkpt>
      <trkpt lat="43.96481" lon="5.33947">
        <ele>491.39999389648</ele>
        <time>2019-03-16T14:53:48Z</time>
      </trkpt>
      <trkpt lat="43.96465" lon="5.33923">
        <ele>489.39999389648</ele>
        <time>2019-03-16T14:54:09Z</time>
      </trkpt>
      <trkpt lat="43.96449" lon="5.33901">
        <ele>488.20001220703</ele>
        <time>2019-03-16T14:54:30Z</time>
      </trkpt>
      <trkpt lat="43.96446" lon="5.33896">
        <ele>487.79998779297</ele>
        <time>2019-03-16T14:54:35Z</time>
      </trkpt>
      <trkpt lat="43.9644" lon="5.33888">
        <ele>487.20001220703</ele>
        <time>2019-03-16T14:54:42Z</time>
      </trkpt>
      <trkpt lat="43.96431" lon="5.33874">
        <ele>486</ele>
        <time>2019-03-16T14:54:54Z</time>
      </trkpt>
      <trkpt lat="43.96429" lon="5.33868">
        <ele>485.79998779297</ele>
        <time>2019-03-16T14:54:58Z</time>
      </trkpt>
      <trkpt lat="43.96431" lon="5.33862">
        <ele>485.20001220703</ele>
        <time>2019-03-16T14:55:03Z</time>
      </trkpt>
      <trkpt lat="43.96441" lon="5.33862">
        <ele>483.60000610352</ele>
        <time>2019-03-16T14:55:12Z</time>
      </trkpt>
      <trkpt lat="43.9646" lon="5.33875">
        <ele>483</ele>
        <time>2019-03-16T14:55:29Z</time>
      </trkpt>
      <trkpt lat="43.96464" lon="5.33878">
        <ele>482.39999389648</ele>
        <time>2019-03-16T14:55:34Z</time>
      </trkpt>
      <trkpt lat="43.96479" lon="5.33892">
        <ele>481.60000610352</ele>
        <time>2019-03-16T14:55:50Z</time>
      </trkpt>
      <trkpt lat="43.96487" lon="5.33895">
        <ele>481.60000610352</ele>
        <time>2019-03-16T14:55:57Z</time>
      </trkpt>
      <trkpt lat="43.96494" lon="5.33898">
        <ele>481</ele>
        <time>2019-03-16T14:56:04Z</time>
      </trkpt>
      <trkpt lat="43.96503" lon="5.339">
        <ele>480</ele>
        <time>2019-03-16T14:56:23Z</time>
      </trkpt>
      <trkpt lat="43.96503" lon="5.339">
        <ele>480</ele>
        <time>2019-03-16T14:56:24Z</time>
      </trkpt>
      <trkpt lat="43.96509" lon="5.33899">
        <ele>480</ele>
        <time>2019-03-16T14:56:29Z</time>
      </trkpt>
      <trkpt lat="43.96524" lon="5.33882">
        <ele>478.39999389648</ele>
        <time>2019-03-16T14:56:47Z</time>
      </trkpt>
      <trkpt lat="43.96533" lon="5.3387">
        <ele>476.39999389648</ele>
        <time>2019-03-16T14:57:00Z</time>
      </trkpt>
      <trkpt lat="43.96541" lon="5.33868">
        <ele>475.60000610352</ele>
        <time>2019-03-16T14:57:06Z</time>
      </trkpt>
      <trkpt lat="43.96558" lon="5.33867">
        <ele>473.79998779297</ele>
        <time>2019-03-16T14:57:22Z</time>
      </trkpt>
      <trkpt lat="43.96563" lon="5.33866">
        <ele>473.60000610352</ele>
        <time>2019-03-16T14:57:26Z</time>
      </trkpt>
      <trkpt lat="43.96571" lon="5.33853">
        <ele>472</ele>
        <time>2019-03-16T14:57:38Z</time>
      </trkpt>
      <trkpt lat="43.9657" lon="5.33847">
        <ele>471.20001220703</ele>
        <time>2019-03-16T14:57:42Z</time>
      </trkpt>
      <trkpt lat="43.96556" lon="5.33835">
        <ele>469.39999389648</ele>
        <time>2019-03-16T14:57:58Z</time>
      </trkpt>
      <trkpt lat="43.96536" lon="5.33827">
        <ele>468</ele>
        <time>2019-03-16T14:58:15Z</time>
      </trkpt>
      <trkpt lat="43.96519" lon="5.33817">
        <ele>466.60000610352</ele>
        <time>2019-03-16T14:58:31Z</time>
      </trkpt>
      <trkpt lat="43.96504" lon="5.33806">
        <ele>465</ele>
        <time>2019-03-16T14:58:46Z</time>
      </trkpt>
      <trkpt lat="43.96491" lon="5.3379">
        <ele>464.20001220703</ele>
        <time>2019-03-16T14:59:02Z</time>
      </trkpt>
      <trkpt lat="43.96479" lon="5.33778">
        <ele>462.20001220703</ele>
        <time>2019-03-16T14:59:16Z</time>
      </trkpt>
      <trkpt lat="43.96466" lon="5.33763">
        <ele>460.39999389648</ele>
        <time>2019-03-16T14:59:32Z</time>
      </trkpt>
      <trkpt lat="43.96453" lon="5.3375">
        <ele>459.20001220703</ele>
        <time>2019-03-16T14:59:45Z</time>
      </trkpt>
      <trkpt lat="43.96436" lon="5.33733">
        <ele>456.79998779297</ele>
        <time>2019-03-16T15:00:02Z</time>
      </trkpt>
      <trkpt lat="43.96424" lon="5.33717">
        <ele>454.39999389648</ele>
        <time>2019-03-16T15:00:17Z</time>
      </trkpt>
      <trkpt lat="43.96423" lon="5.33714">
        <ele>454.20001220703</ele>
        <time>2019-03-16T15:00:19Z</time>
      </trkpt>
      <trkpt lat="43.96412" lon="5.33692">
        <ele>451.60000610352</ele>
        <time>2019-03-16T15:00:35Z</time>
      </trkpt>
      <trkpt lat="43.9641" lon="5.33688">
        <ele>451</ele>
        <time>2019-03-16T15:00:38Z</time>
      </trkpt>
      <trkpt lat="43.96402" lon="5.33667">
        <ele>448.20001220703</ele>
        <time>2019-03-16T15:00:55Z</time>
      </trkpt>
      <trkpt lat="43.96406" lon="5.3366">
        <ele>446.79998779297</ele>
        <time>2019-03-16T15:01:10Z</time>
      </trkpt>
      <trkpt lat="43.96406" lon="5.33659">
        <ele>446.79998779297</ele>
        <time>2019-03-16T15:01:21Z</time>
      </trkpt>
      <trkpt lat="43.96403" lon="5.33659">
        <ele>446.79998779297</ele>
        <time>2019-03-16T15:01:24Z</time>
      </trkpt>
      <trkpt lat="43.96385" lon="5.33657">
        <ele>446.39999389648</ele>
        <time>2019-03-16T15:01:41Z</time>
      </trkpt>
      <trkpt lat="43.96363" lon="5.33665">
        <ele>444.20001220703</ele>
        <time>2019-03-16T15:01:58Z</time>
      </trkpt>
      <trkpt lat="43.96348" lon="5.33674">
        <ele>442.79998779297</ele>
        <time>2019-03-16T15:02:14Z</time>
      </trkpt>
      <trkpt lat="43.96345" lon="5.33675">
        <ele>442.60000610352</ele>
        <time>2019-03-16T15:02:17Z</time>
      </trkpt>
      <trkpt lat="43.96343" lon="5.33676">
        <ele>442.60000610352</ele>
        <time>2019-03-16T15:02:19Z</time>
      </trkpt>
      <trkpt lat="43.9634" lon="5.33678">
        <ele>442.39999389648</ele>
        <time>2019-03-16T15:02:22Z</time>
      </trkpt>
      <trkpt lat="43.96319" lon="5.33686">
        <ele>440.60000610352</ele>
        <time>2019-03-16T15:02:41Z</time>
      </trkpt>
      <trkpt lat="43.96298" lon="5.33688">
        <ele>438.39999389648</ele>
        <time>2019-03-16T15:02:59Z</time>
      </trkpt>
      <trkpt lat="43.96281" lon="5.33686">
        <ele>436.20001220703</ele>
        <time>2019-03-16T15:03:15Z</time>
      </trkpt>
      <trkpt lat="43.96274" lon="5.33676">
        <ele>434.79998779297</ele>
        <time>2019-03-16T15:03:29Z</time>
      </trkpt>
      <trkpt lat="43.96273" lon="5.33674">
        <ele>433.39999389648</ele>
        <time>2019-03-16T15:03:57Z</time>
      </trkpt>
      <trkpt lat="43.96273" lon="5.33674">
        <ele>404.60000610352</ele>
        <time>2019-03-16T15:04:02Z</time>
      </trkpt>
    </trkseg>
  </trk>
</gpx>